Observation data for Guadalupe Mtns Park on 10/14/2019      Previous  Date       Current Mesonet Observations  Soil Data  Daily Summary Page  Observations in Plain Language
KGU1 140500Z 23011KT 16/07 A3015 RMK A01 T01620066  RH  054%=      5-min Rain = 0
KGU1 140501Z 24011KT 16/07 A3015 RMK A01 T01620066  RH  054%=      5-min Rain = 0
KGU1 140502Z 24010KT 16/07 A3015 RMK A01 T01630066  RH  054%=      5-min Rain = 0
KGU1 140503Z 24010KT 16/07 A3015 RMK A01 T01630066  RH  054%=      5-min Rain = 0
KGU1 140504Z 24011KT 16/07 A3015 RMK A01 T01640065  RH  053%=      5-min Rain = 0
KGU1 140505Z 24010KT 16/07 A3015 RMK A01 T01640065  RH  053%=      5-min Rain = 0
KGU1 140506Z 23009KT 16/07 A3015 RMK A01 T01640065  RH  053%=      5-min Rain = 0
KGU1 140507Z 23009KT 16/07 A3015 RMK A01 T01640066  RH  053%=      5-min Rain = 0
KGU1 140508Z 23009KT 16/07 A3015 RMK A01 T01640066  RH  054%=      5-min Rain = 0
KGU1 140509Z 24009KT 16/07 A3015 RMK A01 T01630066  RH  054%=      5-min Rain = 0
KGU1 140510Z 23007KT 16/07 A3015 RMK A01 T01630066  RH  054%=      5-min Rain = 0
KGU1 140511Z 23007KT 16/07 A3015 RMK A01 T01640066  RH  054%=      5-min Rain = 0
KGU1 140512Z 23008KT 16/07 A3014 RMK A01 T01630066  RH  054%=      5-min Rain = 0
KGU1 140513Z 24007KT 16/07 A3014 RMK A01 T01630066  RH  054%=      5-min Rain = 0
KGU1 140514Z 24007KT 16/07 A3014 RMK A01 T01640066  RH  054%=      5-min Rain = 0
KGU1 140515Z 23008KT 16/07 A3014 RMK A01 T01630066  RH  054%=      5-min Rain = 0
KGU1 140516Z 24008KT 16/07 A3014 RMK A01 T01640065  RH  053%=      5-min Rain = 0
KGU1 140517Z 24008KT 17/06 A3014 RMK A01 T01650064  RH  053%=      5-min Rain = 0
KGU1 140518Z 23006KT 17/06 A3014 RMK A01 T01660064  RH  052%=      5-min Rain = 0
KGU1 140519Z 23008KT 17/06 A3014 RMK A01 T01670064  RH  052%=      5-min Rain = 0
KGU1 140520Z 24008KT 17/07 A3014 RMK A01 T01670065  RH  052%=      5-min Rain = 0
KGU1 140521Z 23007KT 17/07 A3014 RMK A01 T01660065  RH  053%=      5-min Rain = 0
KGU1 140522Z 22008KT 17/07 A3014 RMK A01 T01650066  RH  053%=      5-min Rain = 0
KGU1 140523Z 21012KT 16/07 A3014 RMK A01 T01640067  RH  054%=      5-min Rain = 0
KGU1 140524Z 22009G14KT 16/07 A3014 RMK A01 T01630067  RH  054%=      5-min Rain = 0
KGU1 140525Z 21012KT 16/07 A3014 RMK A01 T01620068  RH  055%=      5-min Rain = 0
KGU1 140526Z 22010KT 16/07 A3014 RMK A01 T01620068  RH  055%=      5-min Rain = 0
KGU1 140527Z 22011KT 16/07 A3014 RMK A01 T01620068  RH  055%=      5-min Rain = 0
KGU1 140528Z 22010KT 16/07 A3014 RMK A01 T01620068  RH  055%=      5-min Rain = 0
KGU1 140529Z 22011KT 16/07 A3014 RMK A01 T01620068  RH  055%=      5-min Rain = 0
KGU1 140530Z 21009KT 16/07 A3014 RMK A01 T01610069  RH  056%=      5-min Rain = 0
KGU1 140531Z 21010KT 16/07 A3013 RMK A01 T01600069  RH  056%=      5-min Rain = 0
KGU1 140532Z 21011KT 16/07 A3013 RMK A01 T01600069  RH  056%=      5-min Rain = 0
KGU1 140533Z 21010KT 16/07 A3014 RMK A01 T01590069  RH  056%=      5-min Rain = 0
KGU1 140534Z 22010KT 16/07 A3014 RMK A01 T01590069  RH  057%=      5-min Rain = 0
KGU1 140535Z 23009KT 16/07 A3014 RMK A01 T01580070  RH  057%=      5-min Rain = 0
KGU1 140536Z 23010KT 16/07 A3014 RMK A01 T01580070  RH  057%=      5-min Rain = 0
KGU1 140537Z 21012KT 16/07 A3013 RMK A01 T01580070  RH  057%=      5-min Rain = 0
KGU1 140538Z 22013KT 16/07 A3013 RMK A01 T01570070  RH  058%=      5-min Rain = 0
KGU1 140539Z 22011KT 16/07 A3014 RMK A01 T01570071  RH  058%=      5-min Rain = 0
KGU1 140540Z 22010KT 16/07 A3014 RMK A01 T01570071  RH  058%=      5-min Rain = 0
KGU1 140541Z 21012KT 16/07 A3013 RMK A01 T01560071  RH  058%=      5-min Rain = 0
KGU1 140542Z 21012KT 16/07 A3013 RMK A01 T01560071  RH  058%=      5-min Rain = 0
KGU1 140543Z 21011KT 16/07 A3013 RMK A01 T01570071  RH  058%=      5-min Rain = 0
KGU1 140544Z 22010KT 16/07 A3013 RMK A01 T01570071  RH  058%=      5-min Rain = 0
KGU1 140545Z 21011KT 16/07 A3013 RMK A01 T01560071  RH  058%=      5-min Rain = 0
KGU1 140546Z 22011KT 16/07 A3013 RMK A01 T01560071  RH  058%=      5-min Rain = 0
KGU1 140547Z 22012KT 16/07 A3013 RMK A01 T01560071  RH  059%=      5-min Rain = 0
KGU1 140548Z 22011KT 16/07 A3013 RMK A01 T01560072  RH  059%=      5-min Rain = 0
KGU1 140549Z 21010KT 16/07 A3013 RMK A01 T01560072  RH  059%=      5-min Rain = 0
KGU1 140550Z 22010KT 16/07 A3013 RMK A01 T01560072  RH  059%=      5-min Rain = 0
KGU1 140551Z 22011KT 16/07 A3013 RMK A01 T01560072  RH  059%=      5-min Rain = 0
KGU1 140552Z 21012KT 16/07 A3013 RMK A01 T01560072  RH  059%=      5-min Rain = 0
KGU1 140553Z 21012KT 16/07 A3013 RMK A01 T01560072  RH  059%=      5-min Rain = 0
KGU1 140554Z 21012KT 16/07 A3013 RMK A01 T01560072  RH  059%=      5-min Rain = 0
KGU1 140555Z 21013KT 16/07 A3013 RMK A01 T01560073  RH  059%=      5-min Rain = 0
KGU1 140556Z 21011KT 16/07 A3013 RMK A01 T01560073  RH  059%=      5-min Rain = 0
KGU1 140557Z 21011KT 16/07 A3013 RMK A01 T01550073  RH  060%=      5-min Rain = 0
KGU1 140558Z 21013KT 15/07 A3013 RMK A01 T01540073  RH  060%=      5-min Rain = 0
KGU1 140559Z 21013G18KT 15/07 A3013 RMK A01 T01540074  RH  060%=      5-min Rain = 0
KGU1 140600Z 21014KT 15/07 A3013 RMK A01 T01540074  RH  060%=      5-min Rain = 0
KGU1 140601Z 21010KT 15/07 A3013 RMK A01 T01540074  RH  060%=      5-min Rain = 0
KGU1 140602Z 21011KT 15/08 A3013 RMK A01 T01540075  RH  061%=      5-min Rain = 0
KGU1 140603Z 21011KT 15/08 A3013 RMK A01 T01540075  RH  061%=      5-min Rain = 0
KGU1 140604Z 21010KT 15/08 A3013 RMK A01 T01530076  RH  061%=      5-min Rain = 0
KGU1 140605Z 21010KT 15/08 A3013 RMK A01 T01530075  RH  061%=      5-min Rain = 0
KGU1 140606Z 22011KT 15/08 A3013 RMK A01 T01530076  RH  062%=      5-min Rain = 0
KGU1 140607Z 21009G14KT 15/08 A3013 RMK A01 T01530077  RH  062%=      5-min Rain = 0
KGU1 140608Z 21008KT 15/08 A3013 RMK A01 T01530077  RH  062%=      5-min Rain = 0
KGU1 140609Z 21011KT 15/08 A3013 RMK A01 T01520077  RH  062%=      5-min Rain = 0
KGU1 140610Z 21008KT 15/08 A3013 RMK A01 T01520077  RH  062%=      5-min Rain = 0
KGU1 140611Z 21011KT 15/08 A3013 RMK A01 T01520077  RH  062%=      5-min Rain = 0
KGU1 140612Z 21012KT 15/08 A3013 RMK A01 T01520078  RH  063%=      5-min Rain = 0
KGU1 140613Z 21010KT 15/08 A3013 RMK A01 T01520078  RH  063%=      5-min Rain = 0
KGU1 140614Z 20011KT 15/08 A3013 RMK A01 T01520079  RH  063%=      5-min Rain = 0
KGU1 140615Z 20011KT 15/08 A3013 RMK A01 T01520078  RH  063%=      5-min Rain = 0
KGU1 140616Z 21011KT 15/08 A3013 RMK A01 T01520078  RH  063%=      5-min Rain = 0
KGU1 140617Z 21010KT 15/08 A3013 RMK A01 T01520078  RH  063%=      5-min Rain = 0
KGU1 140618Z 21009KT 15/08 A3013 RMK A01 T01520079  RH  063%=      5-min Rain = 0
KGU1 140619Z 21010KT 15/08 A3013 RMK A01 T01520079  RH  063%=      5-min Rain = 0
KGU1 140620Z 21009KT 15/08 A3013 RMK A01 T01520079  RH  064%=      5-min Rain = 0
KGU1 140621Z 21010KT 15/08 A3013 RMK A01 T01510079  RH  064%=      5-min Rain = 0
KGU1 140622Z 21012KT 15/08 A3013 RMK A01 T01510079  RH  064%=      5-min Rain = 0
KGU1 140623Z 21011KT 15/08 A3013 RMK A01 T01520079  RH  064%=      5-min Rain = 0
KGU1 140624Z 21010KT 15/08 A3013 RMK A01 T01520079  RH  064%=      5-min Rain = 0
KGU1 140625Z 21011KT 15/08 A3013 RMK A01 T01520080  RH  064%=      5-min Rain = 0
KGU1 140626Z 21010KT 15/08 A3013 RMK A01 T01520079  RH  064%=      5-min Rain = 0
KGU1 140627Z 21009KT 15/08 A3013 RMK A01 T01520079  RH  064%=      5-min Rain = 0
KGU1 140628Z 22007KT 15/08 A3013 RMK A01 T01520079  RH  064%=      5-min Rain = 0
KGU1 140629Z 20009KT 15/08 A3013 RMK A01 T01520079  RH  063%=      5-min Rain = 0
KGU1 140630Z 21010KT 15/08 A3013 RMK A01 T01520079  RH  063%=      5-min Rain = 0
KGU1 140631Z 21007KT 15/08 A3013 RMK A01 T01530079  RH  063%=      5-min Rain = 0
KGU1 140632Z 20010KT 15/08 A3013 RMK A01 T01530079  RH  063%=      5-min Rain = 0
KGU1 140633Z 20010KT 15/08 A3012 RMK A01 T01530079  RH  063%=      5-min Rain = 0
KGU1 140634Z 20010KT 15/08 A3012 RMK A01 T01540079  RH  063%=      5-min Rain = 0
KGU1 140635Z 20010KT 15/08 A3012 RMK A01 T01530080  RH  063%=      5-min Rain = 0
KGU1 140636Z 20008KT 15/08 A3012 RMK A01 T01530080  RH  064%=      5-min Rain = 0
KGU1 140637Z 20010KT 15/08 A3012 RMK A01 T01520080  RH  064%=      5-min Rain = 0
KGU1 140638Z 20009KT 15/08 A3012 RMK A01 T01520080  RH  064%=      5-min Rain = 0
KGU1 140639Z 21009KT 15/08 A3012 RMK A01 T01520080  RH  064%=      5-min Rain = 0
KGU1 140640Z 21010KT 15/08 A3012 RMK A01 T01520080  RH  064%=      5-min Rain = 0
KGU1 140641Z 21009KT 15/08 A3012 RMK A01 T01520080  RH  064%=      5-min Rain = 0
KGU1 140642Z 21008KT 15/08 A3012 RMK A01 T01510081  RH  065%=      5-min Rain = 0
KGU1 140643Z 21011KT 15/08 A3012 RMK A01 T01510081  RH  065%=      5-min Rain = 0
KGU1 140644Z 21011KT 15/08 A3012 RMK A01 T01510081  RH  065%=      5-min Rain = 0
KGU1 140645Z 21010KT 15/08 A3012 RMK A01 T01510080  RH  064%=      5-min Rain = 0
KGU1 140646Z 21010KT 15/08 A3012 RMK A01 T01510081  RH  065%=      5-min Rain = 0
KGU1 140647Z 21008KT 15/08 A3012 RMK A01 T01510081  RH  065%=      5-min Rain = 0
KGU1 140648Z 21008KT 15/08 A3011 RMK A01 T01510081  RH  065%=      5-min Rain = 0
KGU1 140649Z 20007KT 15/08 A3011 RMK A01 T01510082  RH  065%=      5-min Rain = 0
KGU1 140650Z 21009KT 15/08 A3011 RMK A01 T01500082  RH  065%=      5-min Rain = 0
KGU1 140651Z 20008KT 15/08 A3011 RMK A01 T01500081  RH  065%=      5-min Rain = 0
KGU1 140652Z 20007KT 15/08 A3011 RMK A01 T01500081  RH  065%=      5-min Rain = 0
KGU1 140653Z 19009KT 15/08 A3011 RMK A01 T01500081  RH  065%=      5-min Rain = 0
KGU1 140654Z 20011KT 15/08 A3011 RMK A01 T01510082  RH  065%=      5-min Rain = 0
KGU1 140655Z 20007KT 15/08 A3011 RMK A01 T01510081  RH  065%=      5-min Rain = 0
KGU1 140656Z 20007KT 15/08 A3011 RMK A01 T01510081  RH  065%=      5-min Rain = 0
KGU1 140657Z 20009KT 15/08 A3011 RMK A01 T01500082  RH  065%=      5-min Rain = 0
KGU1 140658Z 20010KT 15/08 A3012 RMK A01 T01500081  RH  065%=      5-min Rain = 0
KGU1 140659Z 20011KT 15/08 A3012 RMK A01 T01510081  RH  065%=      5-min Rain = 0
KGU1 140700Z 21013KT 15/08 A3012 RMK A01 T01510080  RH  064%=      5-min Rain = 0
KGU1 140701Z 21012KT 15/08 A3012 RMK A01 T01520079  RH  064%=      5-min Rain = 0
KGU1 140702Z 21011KT 15/08 A3012 RMK A01 T01520079  RH  063%=      5-min Rain = 0
KGU1 140703Z 21010KT 15/08 A3012 RMK A01 T01520079  RH  063%=      5-min Rain = 0
KGU1 140704Z 21011KT 15/08 A3012 RMK A01 T01520079  RH  063%=      5-min Rain = 0
KGU1 140705Z 20010KT 15/08 A3012 RMK A01 T01520079  RH  063%=      5-min Rain = 0
KGU1 140706Z 21012KT 15/08 A3012 RMK A01 T01520078  RH  063%=      5-min Rain = 0
KGU1 140707Z 20011KT 15/08 A3012 RMK A01 T01520078  RH  063%=      5-min Rain = 0
KGU1 140708Z 21011KT 15/08 A3012 RMK A01 T01520079  RH  063%=      5-min Rain = 0
KGU1 140709Z 21009KT 15/08 A3012 RMK A01 T01520079  RH  063%=      5-min Rain = 0
KGU1 140710Z 20009KT 15/08 A3012 RMK A01 T01520079  RH  063%=      5-min Rain = 0
KGU1 140711Z 20010KT 15/08 A3012 RMK A01 T01520079  RH  063%=      5-min Rain = 0
KGU1 140712Z 20009KT 15/08 A3012 RMK A01 T01520080  RH  064%=      5-min Rain = 0
KGU1 140713Z 20009KT 15/08 A3012 RMK A01 T01520080  RH  064%=      5-min Rain = 0
KGU1 140714Z 20010KT 15/08 A3012 RMK A01 T01520080  RH  064%=      5-min Rain = 0
KGU1 140715Z 20008KT 15/08 A3012 RMK A01 T01510079  RH  064%=      5-min Rain = 0
KGU1 140716Z 21009G14KT 15/08 A3012 RMK A01 T01510079  RH  064%=      5-min Rain = 0
KGU1 140717Z 21012KT 15/08 A3012 RMK A01 T01510078  RH  063%=      5-min Rain = 0
KGU1 140718Z 21009G14KT 15/08 A3012 RMK A01 T01520079  RH  063%=      5-min Rain = 0
KGU1 140719Z 21010KT 15/08 A3012 RMK A01 T01520079  RH  064%=      5-min Rain = 0
KGU1 140720Z 21009KT 15/08 A3012 RMK A01 T01520079  RH  064%=      5-min Rain = 0
KGU1 140721Z 20007KT 15/08 A3012 RMK A01 T01520079  RH  063%=      5-min Rain = 0
KGU1 140722Z 19007KT 15/08 A3012 RMK A01 T01520078  RH  063%=      5-min Rain = 0
KGU1 140723Z 19008KT 15/08 A3011 RMK A01 T01530078  RH  063%=      5-min Rain = 0
KGU1 140724Z 20009KT 15/08 A3011 RMK A01 T01530077  RH  062%=      5-min Rain = 0
KGU1 140725Z 22008KT 15/08 A3011 RMK A01 T01540076  RH  062%=      5-min Rain = 0
KGU1 140726Z 21008KT 15/08 A3012 RMK A01 T01540076  RH  061%=      5-min Rain = 0
KGU1 140727Z 20008KT 16/08 A3012 RMK A01 T01550076  RH  061%=      5-min Rain = 0
KGU1 140728Z 20007KT 16/08 A3012 RMK A01 T01550076  RH  061%=      5-min Rain = 0
KGU1 140729Z 20007KT 16/08 A3012 RMK A01 T01550075  RH  061%=      5-min Rain = 0
KGU1 140730Z 20006KT 16/08 A3012 RMK A01 T01550075  RH  061%=      5-min Rain = 0
KGU1 140731Z 22005KT 16/08 A3012 RMK A01 T01550076  RH  061%=      5-min Rain = 0
KGU1 140732Z 25009KT 16/07 A3012 RMK A01 T01560069  RH  057%=      5-min Rain = 0
KGU1 140733Z 29006KT 16/07 A3012 RMK A01 T01630067  RH  054%=      5-min Rain = 0
KGU1 140734Z 29005KT 16/07 A3012 RMK A01 T01630071  RH  056%=      5-min Rain = 0
KGU1 140735Z 25005KT 16/07 A3012 RMK A01 T01620070  RH  056%=      5-min Rain = 0
KGU1 140736Z 25005KT 16/06 A3012 RMK A01 T01640060  RH  051%=      5-min Rain = 0
KGU1 140737Z 24006KT 17/06 A3012 RMK A01 T01690057  RH  049%=      5-min Rain = 0
KGU1 140738Z 27006KT 17/06 A3012 RMK A01 T01720055  RH  047%=      5-min Rain = 0
KGU1 140739Z 25004KT 18/05 A3012 RMK A01 T01750054  RH  046%=      5-min Rain = 0
KGU1 140740Z 21007KT 18/05 A3012 RMK A01 T01760053  RH  045%=      5-min Rain = 0
KGU1 140741Z 22007KT 18/05 A3012 RMK A01 T01770051  RH  044%=      5-min Rain = 0
KGU1 140742Z 24006KT 18/05 A3012 RMK A01 T01790051  RH  044%=      5-min Rain = 0
KGU1 140743Z 24004KT 18/05 A3012 RMK A01 T01790052  RH  044%=      5-min Rain = 0
KGU1 140744Z 21005KT 18/05 A3012 RMK A01 T01790052  RH  044%=      5-min Rain = 0
KGU1 140745Z 19006KT 18/06 A3012 RMK A01 T01760062  RH  048%=      5-min Rain = 0
KGU1 140746Z 18007KT 17/07 A3012 RMK A01 T01690072  RH  054%=      5-min Rain = 0
KGU1 140747Z 17005KT 16/07 A3012 RMK A01 T01640074  RH  057%=      5-min Rain = 0
KGU1 140748Z 17005KT 16/08 A3012 RMK A01 T01600075  RH  058%=      5-min Rain = 0
KGU1 140749Z 15005KT 16/08 A3012 RMK A01 T01590075  RH  059%=      5-min Rain = 0
KGU1 140750Z 15005KT 16/08 A3012 RMK A01 T01570075  RH  060%=      5-min Rain = 0
KGU1 140751Z 18005KT 16/08 A3012 RMK A01 T01550075  RH  060%=      5-min Rain = 0
KGU1 140752Z 21002KT 16/07 A3012 RMK A01 T01550074  RH  060%=      5-min Rain = 0
KGU1 140753Z 25003KT 16/07 A3012 RMK A01 T01550073  RH  060%=      5-min Rain = 0
KGU1 140754Z 26007KT 16/07 A3012 RMK A01 T01560066  RH  056%=      5-min Rain = 0
KGU1 140755Z 24008KT 16/06 A3012 RMK A01 T01620055  RH  050%=      5-min Rain = 0
KGU1 140756Z 20007KT 17/06 A3013 RMK A01 T01680055  RH  048%=      5-min Rain = 0
KGU1 140757Z 23007KT 17/06 A3013 RMK A01 T01680057  RH  049%=      5-min Rain = 0
KGU1 140758Z 22007KT 17/05 A3013 RMK A01 T01700051  RH  046%=      5-min Rain = 0
KGU1 140759Z 24006KT 17/05 A3013 RMK A01 T01720051  RH  046%=      5-min Rain = 0
KGU1 140800Z 24007KT 17/05 A3013 RMK A01 T01730050  RH  045%=      5-min Rain = 0
KGU1 140801Z 23007KT 18/05 A3013 RMK A01 T01750050  RH  045%=      5-min Rain = 0
KGU1 140802Z 22006KT 18/05 A3013 RMK A01 T01750050  RH  044%=      5-min Rain = 0
KGU1 140803Z 23009KT 18/05 A3012 RMK A01 T01760051  RH  045%=      5-min Rain = 0
KGU1 140804Z 22010KT 18/05 A3012 RMK A01 T01760052  RH  045%=      5-min Rain = 0
KGU1 140805Z 25010KT 18/05 A3012 RMK A01 T01770050  RH  044%=      5-min Rain = 0
KGU1 140806Z 25009KT 18/05 A3012 RMK A01 T01790048  RH  043%=      5-min Rain = 0
KGU1 140807Z 26006KT 18/05 A3012 RMK A01 T01810048  RH  042%=      5-min Rain = 0
KGU1 140808Z 26006KT 18/05 A3012 RMK A01 T01810048  RH  042%=      5-min Rain = 0
KGU1 140809Z 26006KT 18/05 A3012 RMK A01 T01800049  RH  043%=      5-min Rain = 0
KGU1 140810Z 27003KT 18/05 A3012 RMK A01 T01790049  RH  043%=      5-min Rain = 0
KGU1 140811Z 22005KT 18/05 A3012 RMK A01 T01790049  RH  043%=      5-min Rain = 0
KGU1 140812Z 21007KT 18/05 A3012 RMK A01 T01790052  RH  044%=      5-min Rain = 0
KGU1 140813Z 22008KT 18/06 A3012 RMK A01 T01780055  RH  045%=      5-min Rain = 0
KGU1 140814Z 23006KT 18/06 A3012 RMK A01 T01770056  RH  046%=      5-min Rain = 0
KGU1 140815Z 23008KT 18/06 A3012 RMK A01 T01760057  RH  047%=      5-min Rain = 0
KGU1 140816Z 24009KT 18/06 A3012 RMK A01 T01750060  RH  048%=      5-min Rain = 0
KGU1 140817Z 23010KT 18/06 A3012 RMK A01 T01760059  RH  047%=      5-min Rain = 0
KGU1 140818Z 24012KT 18/06 A3012 RMK A01 T01760061  RH  048%=      5-min Rain = 0
KGU1 140819Z 25007KT 18/07 A3013 RMK A01 T01770067  RH  050%=      5-min Rain = 0
KGU1 140820Z 24005KT 18/07 A3012 RMK A01 T01770065  RH  049%=      5-min Rain = 0
KGU1 140821Z 25007KT 18/07 A3012 RMK A01 T01770066  RH  049%=      5-min Rain = 0
KGU1 140822Z 26005KT 18/07 A3012 RMK A01 T01750066  RH  050%=      5-min Rain = 0
KGU1 140823Z 25005KT 17/07 A3012 RMK A01 T01740066  RH  050%=      5-min Rain = 0
KGU1 140824Z 26006KT 17/06 A3012 RMK A01 T01740064  RH  050%=      5-min Rain = 0
KGU1 140825Z 27009KT 17/06 A3012 RMK A01 T01740061  RH  049%=      5-min Rain = 0
KGU1 140826Z 27008KT 18/06 A3012 RMK A01 T01750058  RH  047%=      5-min Rain = 0
KGU1 140827Z 27008KT 18/06 A3012 RMK A01 T01750057  RH  047%=      5-min Rain = 0
KGU1 140828Z 26007KT 18/06 A3011 RMK A01 T01770056  RH  046%=      5-min Rain = 0
KGU1 140829Z 28006KT 18/06 A3011 RMK A01 T01780055  RH  045%=      5-min Rain = 0
KGU1 140830Z 26007KT 18/06 A3012 RMK A01 T01780057  RH  046%=      5-min Rain = 0
KGU1 140831Z 24008KT 18/07 A3011 RMK A01 T01780070  RH  051%=      5-min Rain = 0
KGU1 140832Z 24005KT 18/08 A3011 RMK A01 T01760082  RH  056%=      5-min Rain = 0
KGU1 140833Z 22005KT 17/08 A3011 RMK A01 T01740082  RH  056%=      5-min Rain = 0
KGU1 140834Z 23009KT 17/08 A3011 RMK A01 T01720084  RH  058%=      5-min Rain = 0
KGU1 140835Z 23008KT 17/09 A3011 RMK A01 T01710086  RH  059%=      5-min Rain = 0
KGU1 140836Z 24009KT 17/09 A3011 RMK A01 T01700087  RH  060%=      5-min Rain = 0
KGU1 140837Z 24011KT 17/09 A3011 RMK A01 T01700088  RH  060%=      5-min Rain = 0
KGU1 140838Z 24008KT 17/09 A3011 RMK A01 T01690090  RH  061%=      5-min Rain = 0
KGU1 140839Z 23008KT 17/09 A3011 RMK A01 T01690092  RH  062%=      5-min Rain = 0
KGU1 140840Z 23007KT 17/10 A3011 RMK A01 T01670095  RH  064%=      5-min Rain = 0
KGU1 140841Z 23007KT 17/10 A3011 RMK A01 T01650096  RH  066%=      5-min Rain = 0
KGU1 140842Z 23009KT 16/10 A3011 RMK A01 T01640098  RH  067%=      5-min Rain = 0
KGU1 140843Z 23008KT 16/10 A3011 RMK A01 T01640096  RH  066%=      5-min Rain = 0
KGU1 140844Z 24008G14KT 16/10 A3011 RMK A01 T01630095  RH  066%=      5-min Rain = 0
KGU1 140845Z 23010KT 16/09 A3011 RMK A01 T01640094  RH  065%=      5-min Rain = 0
KGU1 140846Z 23009KT 16/10 A3011 RMK A01 T01640095  RH  065%=      5-min Rain = 0
KGU1 140847Z 23010KT 16/09 A3011 RMK A01 T01640094  RH  065%=      5-min Rain = 0
KGU1 140848Z 23009KT 17/09 A3011 RMK A01 T01650093  RH  064%=      5-min Rain = 0
KGU1 140849Z 22007KT 16/09 A3011 RMK A01 T01640092  RH  064%=      5-min Rain = 0
KGU1 140850Z 23009KT 16/09 A3011 RMK A01 T01640089  RH  063%=      5-min Rain = 0
KGU1 140851Z 24007KT 17/09 A3011 RMK A01 T01660086  RH  061%=      5-min Rain = 0
KGU1 140852Z 23008KT 17/08 A3011 RMK A01 T01670083  RH  059%=      5-min Rain = 0
KGU1 140853Z 24007KT 17/08 A3011 RMK A01 T01680080  RH  058%=      5-min Rain = 0
KGU1 140854Z 23006KT 17/08 A3011 RMK A01 T01690079  RH  057%=      5-min Rain = 0
KGU1 140855Z 23007KT 17/08 A3011 RMK A01 T01690083  RH  058%=      5-min Rain = 0
KGU1 140856Z 23006KT 17/09 A3011 RMK A01 T01700086  RH  060%=      5-min Rain = 0
KGU1 140857Z 23006KT 17/09 A3011 RMK A01 T01690087  RH  060%=      5-min Rain = 0
KGU1 140858Z 24005KT 17/09 A3011 RMK A01 T01700087  RH  060%=      5-min Rain = 0
KGU1 140859Z 25005KT 17/08 A3011 RMK A01 T01700081  RH  057%=      5-min Rain = 0
KGU1 140900Z 26007KT 17/08 A3011 RMK A01 T01700076  RH  055%=      5-min Rain = 0
KGU1 140901Z 25006KT 17/08 A3011 RMK A01 T01710077  RH  055%=      5-min Rain = 0
KGU1 140902Z 27005KT 17/07 A301 RMK A01 T01720073  RH  053%=      5-min Rain = 0
KGU1 140903Z 25005KT 17/07 A301 RMK A01 T01740071  RH  052%=      5-min Rain = 0
KGU1 140904Z 25006KT 18/07 A301 RMK A01 T01750073  RH  052%=      5-min Rain = 0
KGU1 140905Z 24007KT 18/07 A301 RMK A01 T01750074  RH  053%=      5-min Rain = 0
KGU1 140906Z 22006KT 18/08 A301 RMK A01 T01750079  RH  055%=      5-min Rain = 0
KGU1 140907Z 22007KT 17/09 A301 RMK A01 T01730088  RH  059%=      5-min Rain = 0
KGU1 140908Z 23005KT 17/09 A301 RMK A01 T01690091  RH  062%=      5-min Rain = 0
KGU1 140909Z 22004KT 17/09 A301 RMK A01 T01660091  RH  063%=      5-min Rain = 0
KGU1 140910Z 23005KT 17/09 A301 RMK A01 T01650091  RH  064%=      5-min Rain = 0
KGU1 140911Z 23005KT 16/09 A301 RMK A01 T01640090  RH  064%=      5-min Rain = 0
KGU1 140912Z 23004KT 16/09 A301 RMK A01 T01640089  RH  063%=      5-min Rain = 0
KGU1 140913Z 22006KT 16/09 A3009 RMK A01 T01630089  RH  063%=      5-min Rain = 0
KGU1 140914Z 24005KT 16/09 A3009 RMK A01 T01640088  RH  063%=      5-min Rain = 0
KGU1 140915Z 23004KT 17/08 A3009 RMK A01 T01650080  RH  059%=      5-min Rain = 0
KGU1 140916Z 24005KT 17/08 A3009 RMK A01 T01680079  RH  057%=      5-min Rain = 0
KGU1 140917Z 26005KT 17/08 A3009 RMK A01 T01690078  RH  056%=      5-min Rain = 0
KGU1 140918Z 25006KT 17/08 A3009 RMK A01 T01700076  RH  056%=      5-min Rain = 0
KGU1 140919Z 24006KT 17/07 A3009 RMK A01 T01720074  RH  054%=      5-min Rain = 0
KGU1 140920Z 24004KT 17/08 A3009 RMK A01 T01730075  RH  054%=      5-min Rain = 0
KGU1 140921Z 23003KT 17/08 A3009 RMK A01 T01730076  RH  054%=      5-min Rain = 0
KGU1 140922Z 22005KT 17/08 A3009 RMK A01 T01730081  RH  056%=      5-min Rain = 0
KGU1 140923Z 22007KT 17/09 A3009 RMK A01 T01710089  RH  060%=      5-min Rain = 0
KGU1 140924Z 23006KT 17/09 A3009 RMK A01 T01690089  RH  061%=      5-min Rain = 0
KGU1 140925Z 22006KT 17/09 A3009 RMK A01 T01690089  RH  061%=      5-min Rain = 0
KGU1 140926Z 23006KT 17/09 A3009 RMK A01 T01680090  RH  062%=      5-min Rain = 0
KGU1 140927Z 23007KT 17/09 A3009 RMK A01 T01680091  RH  063%=      5-min Rain = 0
KGU1 140928Z 21006KT 17/10 A3009 RMK A01 T01670095  RH  064%=      5-min Rain = 0
KGU1 140929Z 21006KT 17/10 A3009 RMK A01 T01660096  RH  066%=      5-min Rain = 0
KGU1 140930Z 22007KT 16/10 A3009 RMK A01 T01640097  RH  066%=      5-min Rain = 0
KGU1 140931Z 24010KT 17/09 A3009 RMK A01 T01650093  RH  065%=      5-min Rain = 0
KGU1 140932Z 23010KT 17/09 A3009 RMK A01 T01670094  RH  064%=      5-min Rain = 0
KGU1 140933Z 22008KT 17/10 A3009 RMK A01 T01680095  RH  064%=      5-min Rain = 0
KGU1 140934Z 22009KT 17/10 A3009 RMK A01 T01670097  RH  066%=      5-min Rain = 0
KGU1 140935Z 23007KT 17/10 A3009 RMK A01 T01650099  RH  067%=      5-min Rain = 0
KGU1 140936Z 22009KT 17/10 A3009 RMK A01 T01650099  RH  067%=      5-min Rain = 0
KGU1 140937Z 22011KT 17/10 A3009 RMK A01 T01650100  RH  068%=      5-min Rain = 0
KGU1 140938Z 23008G13KT 17/10 A3009 RMK A01 T01650101  RH  068%=      5-min Rain = 0
KGU1 140939Z 22011KT 17/10 A3009 RMK A01 T01650102  RH  068%=      5-min Rain = 0
KGU1 140940Z 22010KT 17/10 A3009 RMK A01 T01650102  RH  068%=      5-min Rain = 0
KGU1 140941Z 23009KT 17/10 A3009 RMK A01 T01660102  RH  068%=      5-min Rain = 0
KGU1 140942Z 23010KT 17/10 A3009 RMK A01 T01660102  RH  068%=      5-min Rain = 0
KGU1 140943Z 23008KT 17/10 A3009 RMK A01 T01670101  RH  067%=      5-min Rain = 0
KGU1 140944Z 23008KT 17/10 A3009 RMK A01 T01670102  RH  067%=      5-min Rain = 0
KGU1 140945Z 23009KT 17/10 A3009 RMK A01 T01660103  RH  068%=      5-min Rain = 0
KGU1 140946Z 24008KT 17/10 A3009 RMK A01 T01650102  RH  069%=      5-min Rain = 0
KGU1 140947Z 26009KT 17/10 A3009 RMK A01 T01650100  RH  067%=      5-min Rain = 0
KGU1 140948Z 26009KT 17/10 A3009 RMK A01 T01670096  RH  065%=      5-min Rain = 0
KGU1 140949Z 24009KT 17/10 A3009 RMK A01 T01680098  RH  065%=      5-min Rain = 0
KGU1 140950Z 23007KT 17/10 A3009 RMK A01 T01690101  RH  066%=      5-min Rain = 0
KGU1 140951Z 23006KT 17/10 A3009 RMK A01 T01670103  RH  068%=      5-min Rain = 0
KGU1 140952Z 23008KT 17/10 A3009 RMK A01 T01650104  RH  069%=      5-min Rain = 0
KGU1 140953Z 24009KT 17/10 A3009 RMK A01 T01650103  RH  069%=      5-min Rain = 0
KGU1 140954Z 24006KT 17/10 A3009 RMK A01 T01660103  RH  069%=      5-min Rain = 0
KGU1 140955Z 22008KT 17/10 A3009 RMK A01 T01660104  RH  069%=      5-min Rain = 0
KGU1 140956Z 23007KT 17/11 A3009 RMK A01 T01650105  RH  070%=      5-min Rain = 0
KGU1 140957Z 23010KT 16/11 A3009 RMK A01 T01640105  RH  070%=      5-min Rain = 0
KGU1 140958Z 25007KT 16/11 A3009 RMK A01 T01630105  RH  070%=      5-min Rain = 0
KGU1 140959Z 24008KT 16/10 A3009 RMK A01 T01640104  RH  070%=      5-min Rain = 0
KGU1 141000Z 23008KT 16/11 A3009 RMK A01 T01630106  RH  071%=      5-min Rain = 0
KGU1 141001Z 22009KT 16/11 A3009 RMK A01 T01630106  RH  071%=      5-min Rain = 0
KGU1 141002Z 22009KT 16/11 A3009 RMK A01 T01630107  RH  072%=      5-min Rain = 0
KGU1 141003Z 22007G12KT 16/11 A3009 RMK A01 T01630106  RH  071%=      5-min Rain = 0
KGU1 141004Z 22011KT 16/10 A3009 RMK A01 T01640103  RH  069%=      5-min Rain = 0
KGU1 141005Z 22009KT 16/11 A3009 RMK A01 T01640106  RH  071%=      5-min Rain = 0
KGU1 141006Z 23008KT 16/10 A3009 RMK A01 T01640104  RH  070%=      5-min Rain = 0
KGU1 141007Z 25008KT 17/10 A3009 RMK A01 T01660098  RH  066%=      5-min Rain = 0
KGU1 141008Z 23006KT 17/10 A3009 RMK A01 T01670102  RH  068%=      5-min Rain = 0
KGU1 141009Z 23008KT 17/10 A3009 RMK A01 T01660104  RH  069%=      5-min Rain = 0
KGU1 141010Z 22008KT 17/10 A3009 RMK A01 T01650104  RH  069%=      5-min Rain = 0
KGU1 141011Z 22008KT 16/11 A3009 RMK A01 T01640106  RH  071%=      5-min Rain = 0
KGU1 141012Z 22008KT 16/11 A3009 RMK A01 T01630107  RH  072%=      5-min Rain = 0
KGU1 141013Z 24007KT 16/11 A3009 RMK A01 T01620107  RH  072%=      5-min Rain = 0
KGU1 141014Z 22009KT 16/11 A3009 RMK A01 T01620107  RH  073%=      5-min Rain = 0
KGU1 141015Z 22008KT 16/11 A3009 RMK A01 T01610108  RH  073%=      5-min Rain = 0
KGU1 141016Z 23006KT 16/11 A3008 RMK A01 T01600108  RH  074%=      5-min Rain = 0
KGU1 141017Z 23006KT 16/11 A3008 RMK A01 T01600108  RH  074%=      5-min Rain = 0
KGU1 141018Z 22006KT 16/11 A3008 RMK A01 T01590108  RH  074%=      5-min Rain = 0
KGU1 141019Z 22006KT 16/11 A3008 RMK A01 T01600107  RH  074%=      5-min Rain = 0
KGU1 141020Z 21008KT 16/11 A3008 RMK A01 T01600107  RH  073%=      5-min Rain = 0
KGU1 141021Z 21010KT 16/11 A3008 RMK A01 T01590107  RH  074%=      5-min Rain = 0
KGU1 141022Z 22010KT 16/11 A3008 RMK A01 T01590107  RH  074%=      5-min Rain = 0
KGU1 141023Z 22009KT 16/11 A3008 RMK A01 T01580107  RH  074%=      5-min Rain = 0
KGU1 141024Z 22010KT 16/11 A3008 RMK A01 T01570107  RH  075%=      5-min Rain = 0
KGU1 141025Z 21009KT 16/11 A3008 RMK A01 T01560107  RH  075%=      5-min Rain = 0
KGU1 141026Z 21006KT 16/11 A3008 RMK A01 T01560107  RH  075%=      5-min Rain = 0
KGU1 141027Z 21010KT 16/11 A3008 RMK A01 T01550107  RH  075%=      5-min Rain = 0
KGU1 141028Z 21011KT 15/11 A3008 RMK A01 T01540106  RH  076%=      5-min Rain = 0
KGU1 141029Z 21010KT 15/11 A3008 RMK A01 T01540106  RH  076%=      5-min Rain = 0
KGU1 141030Z 21010KT 15/11 A3008 RMK A01 T01540106  RH  076%=      5-min Rain = 0
KGU1 141031Z 21009KT 15/11 A3008 RMK A01 T01540106  RH  076%=      5-min Rain = 0
KGU1 141032Z 21010KT 15/11 A3008 RMK A01 T01540106  RH  076%=      5-min Rain = 0
KGU1 141033Z 21012KT 16/11 A3008 RMK A01 T01550105  RH  075%=      5-min Rain = 0
KGU1 141034Z 22011KT 16/11 A3008 RMK A01 T01550105  RH  075%=      5-min Rain = 0
KGU1 141035Z 21011KT 16/11 A3009 RMK A01 T01560106  RH  075%=      5-min Rain = 0
KGU1 141036Z 21010KT 16/11 A3009 RMK A01 T01560106  RH  075%=      5-min Rain = 0
KGU1 141037Z 21008KT 16/11 A3009 RMK A01 T01560106  RH  075%=      5-min Rain = 0
KGU1 141038Z 23007KT 16/10 A3009 RMK A01 T01570104  RH  073%=      5-min Rain = 0
KGU1 141039Z 27006KT 16/10 A3009 RMK A01 T01580101  RH  071%=      5-min Rain = 0
KGU1 141040Z 31007KT 16/10 A3009 RMK A01 T01600101  RH  071%=      5-min Rain = 0
KGU1 141041Z 29010KT 16/10 A3009 RMK A01 T01600102  RH  071%=      5-min Rain = 0
KGU1 141042Z 29014G19KT 16/10 A3009 RMK A01 T01600103  RH  072%=      5-min Rain = 0
KGU1 141043Z 29013KT 16/10 A3009 RMK A01 T01600104  RH  072%=      5-min Rain = 0
KGU1 141044Z 30014KT 16/10 A3009 RMK A01 T01610103  RH  071%=      5-min Rain = 0
KGU1 141045Z 30016KT 16/10 A3009 RMK A01 T01620100  RH  069%=      5-min Rain = 0
KGU1 141046Z 30014KT 16/10 A301 RMK A01 T01630100  RH  068%=      5-min Rain = 0
KGU1 141047Z 31010KT 16/10 A301 RMK A01 T01640101  RH  069%=      5-min Rain = 0
KGU1 141048Z 31013KT 16/10 A301 RMK A01 T01630102  RH  069%=      5-min Rain = 0
KGU1 141049Z 30009KT 16/10 A301 RMK A01 T01640102  RH  069%=      5-min Rain = 0
KGU1 141050Z 30009KT 16/10 A301 RMK A01 T01630101  RH  069%=      5-min Rain = 0
KGU1 141051Z 30013KT 16/10 A301 RMK A01 T01630101  RH  069%=      5-min Rain = 0
KGU1 141052Z 31011KT 16/10 A301 RMK A01 T01640102  RH  069%=      5-min Rain = 0
KGU1 141053Z 32008KT 16/10 A301 RMK A01 T01640101  RH  069%=      5-min Rain = 0
KGU1 141054Z 29009G15KT 16/10 A301 RMK A01 T01640102  RH  069%=      5-min Rain = 0
KGU1 141055Z 30009KT 16/10 A301 RMK A01 T01630102  RH  069%=      5-min Rain = 0
KGU1 141056Z 30010KT 16/10 A301 RMK A01 T01630102  RH  069%=      5-min Rain = 0
KGU1 141057Z 29005KT 16/10 A301 RMK A01 T01630101  RH  069%=      5-min Rain = 0
KGU1 141058Z 27005KT 16/10 A301 RMK A01 T01630101  RH  069%=      5-min Rain = 0
KGU1 141059Z 27007KT 16/10 A3011 RMK A01 T01630103  RH  069%=      5-min Rain = 0
KGU1 141100Z 27005KT 16/10 A3011 RMK A01 T01630103  RH  070%=      5-min Rain = 0
KGU1 141101Z 30005KT 16/10 A3011 RMK A01 T01620104  RH  071%=      5-min Rain = 0
KGU1 141102Z 30009G14KT 16/10 A3011 RMK A01 T01610104  RH  071%=      5-min Rain = 0
KGU1 141103Z 31012KT 16/11 A3011 RMK A01 T01610105  RH  072%=      5-min Rain = 0
KGU1 141104Z 28010KT 16/10 A301 RMK A01 T01610104  RH  072%=      5-min Rain = 0
KGU1 141105Z 28008KT 16/10 A301 RMK A01 T01610104  RH  072%=      5-min Rain = 0
KGU1 141106Z 29010KT 16/11 A301 RMK A01 T01610105  RH  072%=      5-min Rain = 0
KGU1 141107Z 32011KT 16/10 A301 RMK A01 T01610104  RH  072%=      5-min Rain = 0
KGU1 141108Z 31014KT 16/11 A301 RMK A01 T01620105  RH  071%=      5-min Rain = 0
KGU1 141109Z 33007G13KT 16/10 A301 RMK A01 T01630104  RH  071%=      5-min Rain = 0
KGU1 141110Z 33005KT 16/10 A301 RMK A01 T01630103  RH  070%=      5-min Rain = 0
KGU1 141111Z 01003KT 16/10 A301 RMK A01 T01640101  RH  069%=      5-min Rain = 0
KGU1 141112Z 33005KT 17/10 A301 RMK A01 T01650102  RH  069%=      5-min Rain = 0
KGU1 141113Z 34006KT 16/10 A301 RMK A01 T01640103  RH  069%=      5-min Rain = 0
KGU1 141114Z 32009KT 16/11 A301 RMK A01 T01640105  RH  070%=      5-min Rain = 0
KGU1 141115Z 31006KT 16/11 A301 RMK A01 T01640105  RH  071%=      5-min Rain = 0
KGU1 141116Z 31006KT 16/10 A301 RMK A01 T01630104  RH  070%=      5-min Rain = 0
KGU1 141117Z 30008KT 16/10 A301 RMK A01 T01640104  RH  070%=      5-min Rain = 0
KGU1 141118Z 31007KT 16/10 A301 RMK A01 T01630104  RH  070%=      5-min Rain = 0
KGU1 141119Z 29006KT 16/10 A3011 RMK A01 T01630104  RH  071%=      5-min Rain = 0
KGU1 141120Z 28006KT 16/11 A3011 RMK A01 T01630105  RH  071%=      5-min Rain = 0
KGU1 141121Z 25004KT 16/11 A3011 RMK A01 T01620105  RH  071%=      5-min Rain = 0
KGU1 141122Z 26006KT 16/11 A301 RMK A01 T01620105  RH  071%=      5-min Rain = 0
KGU1 141123Z 22005KT 16/11 A3011 RMK A01 T01620105  RH  071%=      5-min Rain = 0
KGU1 141124Z 23006KT 16/11 A3011 RMK A01 T01620106  RH  072%=      5-min Rain = 0
KGU1 141125Z 21006KT 16/11 A3011 RMK A01 T01610106  RH  072%=      5-min Rain = 0
KGU1 141126Z 22007KT 16/11 A3011 RMK A01 T01620105  RH  072%=      5-min Rain = 0
KGU1 141127Z 22005KT 16/10 A3011 RMK A01 T01620104  RH  071%=      5-min Rain = 0
KGU1 141128Z 19004KT 16/10 A3011 RMK A01 T01640103  RH  069%=      5-min Rain = 0
KGU1 141129Z 18002KT 17/10 A3011 RMK A01 T01650103  RH  069%=      5-min Rain = 0
KGU1 141130Z 27004KT 17/10 A3011 RMK A01 T01650103  RH  069%=      5-min Rain = 0
KGU1 141131Z 30007KT 16/10 A301 RMK A01 T01640103  RH  069%=      5-min Rain = 0
KGU1 141132Z 31008KT 16/10 A301 RMK A01 T01640103  RH  069%=      5-min Rain = 0
KGU1 141133Z 31008KT 16/10 A301 RMK A01 T01630103  RH  070%=      5-min Rain = 0
KGU1 141134Z 31006KT 16/10 A301 RMK A01 T01630104  RH  070%=      5-min Rain = 0
KGU1 141135Z 31007KT 16/10 A301 RMK A01 T01620104  RH  071%=      5-min Rain = 0
KGU1 141136Z 30006KT 16/10 A301 RMK A01 T01620103  RH  070%=      5-min Rain = 0
KGU1 141137Z 30007KT 16/10 A301 RMK A01 T01620103  RH  070%=      5-min Rain = 0
KGU1 141138Z 30006KT 16/10 A301 RMK A01 T01630101  RH  069%=      5-min Rain = 0
KGU1 141139Z 30008KT 16/10 A301 RMK A01 T01640101  RH  068%=      5-min Rain = 0
KGU1 141140Z 29008KT 16/10 A301 RMK A01 T01640101  RH  068%=      5-min Rain = 0
KGU1 141141Z 29010KT 16/10 A301 RMK A01 T01640102  RH  069%=      5-min Rain = 0
KGU1 141142Z 29010KT 16/10 A301 RMK A01 T01640103  RH  070%=      5-min Rain = 0
KGU1 141143Z 29009KT 16/10 A301 RMK A01 T01630103  RH  069%=      5-min Rain = 0
KGU1 141144Z 30008KT 16/10 A301 RMK A01 T01630103  RH  070%=      5-min Rain = 0
KGU1 141145Z 30010KT 16/10 A301 RMK A01 T01620103  RH  070%=      5-min Rain = 0
KGU1 141146Z 31012KT 16/10 A301 RMK A01 T01620103  RH  070%=      5-min Rain = 0
KGU1 141147Z 30012KT 16/10 A301 RMK A01 T01630104  RH  070%=      5-min Rain = 0
KGU1 141148Z 30012KT 16/11 A301 RMK A01 T01630105  RH  071%=      5-min Rain = 0
KGU1 141149Z 31013KT 16/11 A301 RMK A01 T01630105  RH  071%=      5-min Rain = 0
KGU1 141150Z 30011KT 16/11 A301 RMK A01 T01630106  RH  071%=      5-min Rain = 0
KGU1 141151Z 29011KT 16/11 A301 RMK A01 T01630106  RH  071%=      5-min Rain = 0
KGU1 141152Z 27009KT 16/11 A301 RMK A01 T01630106  RH  072%=      5-min Rain = 0
KGU1 141153Z 27007KT 16/11 A301 RMK A01 T01630106  RH  072%=      5-min Rain = 0
KGU1 141154Z 29008KT 16/11 A301 RMK A01 T01620107  RH  072%=      5-min Rain = 0
KGU1 141155Z 27008G13KT 16/11 A301 RMK A01 T01620107  RH  072%=      5-min Rain = 0
KGU1 141156Z 25013G18KT 16/11 A3011 RMK A01 T01620106  RH  072%=      5-min Rain = 0
KGU1 141157Z 24006KT 16/11 A3011 RMK A01 T01630106  RH  072%=      5-min Rain = 0
KGU1 141158Z 27011KT 16/11 A3011 RMK A01 T01630106  RH  071%=      5-min Rain = 0
KGU1 141159Z 29015KT 16/11 A3011 RMK A01 T01630105  RH  071%=      5-min Rain = 0
KGU1 141200Z 28009KT 16/10 A3011 RMK A01 T01640103  RH  069%=      5-min Rain = 0
KGU1 141201Z 29011KT 17/10 A3011 RMK A01 T01650102  RH  068%=      5-min Rain = 0
KGU1 141202Z 29010KT 17/10 A3011 RMK A01 T01660101  RH  068%=      5-min Rain = 0
KGU1 141203Z 29007KT 17/10 A3011 RMK A01 T01660101  RH  068%=      5-min Rain = 0
KGU1 141204Z 30008G13KT 17/10 A301 RMK A01 T01660102  RH  068%=      5-min Rain = 0
KGU1 141205Z 30011KT 17/10 A301 RMK A01 T01650101  RH  068%=      5-min Rain = 0
KGU1 141206Z 30013KT 17/10 A301 RMK A01 T01650101  RH  068%=      5-min Rain = 0
KGU1 141207Z 30013KT 17/10 A301 RMK A01 T01660101  RH  067%=      5-min Rain = 0
KGU1 141208Z 31013KT 17/10 A3011 RMK A01 T01660102  RH  068%=      5-min Rain = 0
KGU1 141209Z 31012KT 17/10 A3011 RMK A01 T01660100  RH  067%=      5-min Rain = 0
KGU1 141210Z 29010KT 17/10 A3011 RMK A01 T01660101  RH  068%=      5-min Rain = 0
KGU1 141211Z 29010KT 17/10 A3011 RMK A01 T01650101  RH  068%=      5-min Rain = 0
KGU1 141212Z 27008KT 16/10 A3011 RMK A01 T01640100  RH  068%=      5-min Rain = 0
KGU1 141213Z 28008KT 16/10 A3011 RMK A01 T01640099  RH  068%=      5-min Rain = 0
KGU1 141214Z 29009KT 16/10 A3011 RMK A01 T01640096  RH  066%=      5-min Rain = 0
KGU1 141215Z 26008KT 17/10 A3011 RMK A01 T01650096  RH  065%=      5-min Rain = 0
KGU1 141216Z 26008KT 17/10 A3011 RMK A01 T01650101  RH  068%=      5-min Rain = 0
KGU1 141217Z 25006KT 17/10 A3011 RMK A01 T01650102  RH  069%=      5-min Rain = 0
KGU1 141218Z 27006KT 16/10 A3011 RMK A01 T01640096  RH  066%=      5-min Rain = 0
KGU1 141219Z 28007KT 17/09 A3011 RMK A01 T01660089  RH  062%=      5-min Rain = 0
KGU1 141220Z 29008KT 17/09 A3011 RMK A01 T01670089  RH  062%=      5-min Rain = 0
KGU1 141221Z 30012KT 17/09 A3011 RMK A01 T01670088  RH  061%=      5-min Rain = 0
KGU1 141222Z 30013KT 17/09 A3011 RMK A01 T01680089  RH  061%=      5-min Rain = 0
KGU1 141223Z 29012KT 17/09 A3011 RMK A01 T01680090  RH  062%=      5-min Rain = 0
KGU1 141224Z 29013KT 17/09 A3011 RMK A01 T01670091  RH  062%=      5-min Rain = 0
KGU1 141225Z 27011KT 17/09 A3011 RMK A01 T01670091  RH  063%=      5-min Rain = 0
KGU1 141226Z 26009KT 17/09 A3011 RMK A01 T01670091  RH  063%=      5-min Rain = 0
KGU1 141227Z 26007KT 17/09 A3011 RMK A01 T01670091  RH  063%=      5-min Rain = 0
KGU1 141228Z 25010KT 17/10 A3012 RMK A01 T01670095  RH  064%=      5-min Rain = 0
KGU1 141229Z 24009KT 17/10 A3012 RMK A01 T01670095  RH  065%=      5-min Rain = 0
KGU1 141230Z 24007KT 17/10 A3012 RMK A01 T01670098  RH  066%=      5-min Rain = 0
KGU1 141231Z 22006KT 17/10 A3012 RMK A01 T01650099  RH  067%=      5-min Rain = 0
KGU1 141232Z 25005KT 16/10 A3012 RMK A01 T01640099  RH  068%=      5-min Rain = 0
KGU1 141233Z 27004KT 16/10 A3012 RMK A01 T01640099  RH  067%=      5-min Rain = 0
KGU1 141234Z 28006KT 16/10 A3012 RMK A01 T01630099  RH  068%=      5-min Rain = 0
KGU1 141235Z 30010G15KT 16/10 A3012 RMK A01 T01630097  RH  067%=      5-min Rain = 0
KGU1 141236Z 29014KT 16/10 A3012 RMK A01 T01630097  RH  067%=      5-min Rain = 0
KGU1 141237Z 28013KT 16/10 A3012 RMK A01 T01640097  RH  066%=      5-min Rain = 0
KGU1 141238Z 27008KT 16/10 A3012 RMK A01 T01640097  RH  066%=      5-min Rain = 0
KGU1 141239Z 28012KT 16/10 A3012 RMK A01 T01640098  RH  067%=      5-min Rain = 0
KGU1 141240Z 28007KT 16/10 A3012 RMK A01 T01640099  RH  068%=      5-min Rain = 0
KGU1 141241Z 29010KT 16/10 A3012 RMK A01 T01630099  RH  068%=      5-min Rain = 0
KGU1 141242Z 28008KT 16/10 A3012 RMK A01 T01630099  RH  068%=      5-min Rain = 0
KGU1 141243Z 28009KT 16/10 A3012 RMK A01 T01620099  RH  068%=      5-min Rain = 0
KGU1 141244Z 30011KT 16/10 A3012 RMK A01 T01620099  RH  068%=      5-min Rain = 0
KGU1 141245Z 29011KT 16/10 A3012 RMK A01 T01630099  RH  068%=      5-min Rain = 0
KGU1 141246Z 29009KT 16/10 A3012 RMK A01 T01630099  RH  068%=      5-min Rain = 0
KGU1 141247Z 28010KT 16/10 A3012 RMK A01 T01630100  RH  068%=      5-min Rain = 0
KGU1 141248Z 28009KT 16/10 A3012 RMK A01 T01630099  RH  068%=      5-min Rain = 0
KGU1 141249Z 28009KT 16/10 A3012 RMK A01 T01630100  RH  068%=      5-min Rain = 0
KGU1 141250Z 28008KT 16/10 A3012 RMK A01 T01620100  RH  069%=      5-min Rain = 0
KGU1 141251Z 28008KT 16/10 A3012 RMK A01 T01620100  RH  069%=      5-min Rain = 0
KGU1 141252Z 28009KT 16/10 A3012 RMK A01 T01620100  RH  069%=      5-min Rain = 0
KGU1 141253Z 27008KT 16/10 A3012 RMK A01 T01620101  RH  069%=      5-min Rain = 0
KGU1 141254Z 26008KT 16/10 A3013 RMK A01 T01620101  RH  069%=      5-min Rain = 0
KGU1 141255Z 25005KT 16/10 A3013 RMK A01 T01620101  RH  069%=      5-min Rain = 0
KGU1 141256Z 26005KT 16/10 A3013 RMK A01 T01620101  RH  070%=      5-min Rain = 0
KGU1 141257Z 26008KT 16/10 A3013 RMK A01 T01620102  RH  070%=      5-min Rain = 0
KGU1 141258Z 27007KT 16/10 A3013 RMK A01 T01620102  RH  070%=      5-min Rain = 0
KGU1 141259Z 25007KT 16/10 A3013 RMK A01 T01620103  RH  070%=      5-min Rain = 0
KGU1 141300Z 24009KT 16/10 A3013 RMK A01 T01620103  RH  070%=      5-min Rain = 0
KGU1 141301Z 25007KT 16/10 A3013 RMK A01 T01620104  RH  071%=      5-min Rain = 0
KGU1 141302Z 25007KT 16/10 A3013 RMK A01 T01630104  RH  071%=      5-min Rain = 0
KGU1 141303Z 25007KT 16/10 A3013 RMK A01 T01630104  RH  071%=      5-min Rain = 0
KGU1 141304Z 25006KT 16/11 A3013 RMK A01 T01630105  RH  071%=      5-min Rain = 0
KGU1 141305Z 25006KT 16/11 A3013 RMK A01 T01630105  RH  071%=      5-min Rain = 0
KGU1 141306Z 26008KT 16/11 A3013 RMK A01 T01630106  RH  071%=      5-min Rain = 0
KGU1 141307Z 26009KT 16/11 A3013 RMK A01 T01630107  RH  072%=      5-min Rain = 0
KGU1 141308Z 25009KT 16/11 A3013 RMK A01 T01640108  RH  072%=      5-min Rain = 0
KGU1 141309Z 23008KT 16/11 A3013 RMK A01 T01640109  RH  072%=      5-min Rain = 0
KGU1 141310Z 24006KT 16/11 A3013 RMK A01 T01640109  RH  072%=      5-min Rain = 0
KGU1 141311Z 24006KT 16/11 A3013 RMK A01 T01640109  RH  072%=      5-min Rain = 0
KGU1 141312Z 25008KT 16/11 A3013 RMK A01 T01640109  RH  072%=      5-min Rain = 0
KGU1 141313Z 27007KT 16/11 A3013 RMK A01 T01640109  RH  072%=      5-min Rain = 0
KGU1 141314Z 27005KT 16/11 A3013 RMK A01 T01640110  RH  073%=      5-min Rain = 0
KGU1 141315Z 26006KT 16/11 A3013 RMK A01 T01640110  RH  073%=      5-min Rain = 0
KGU1 141316Z 24008KT 16/11 A3013 RMK A01 T01630110  RH  073%=      5-min Rain = 0
KGU1 141317Z 24006KT 16/11 A3013 RMK A01 T01630111  RH  074%=      5-min Rain = 0
KGU1 141318Z 25005KT 16/11 A3013 RMK A01 T01620110  RH  074%=      5-min Rain = 0
KGU1 141319Z 26005KT 16/11 A3013 RMK A01 T01620109  RH  073%=      5-min Rain = 0
KGU1 141320Z 26005KT 16/11 A3013 RMK A01 T01630109  RH  073%=      5-min Rain = 0
KGU1 141321Z 27006KT 16/11 A3013 RMK A01 T01630109  RH  073%=      5-min Rain = 0
KGU1 141322Z 27008KT 16/11 A3013 RMK A01 T01630109  RH  073%=      5-min Rain = 0
KGU1 141323Z 25006KT 16/11 A3013 RMK A01 T01630108  RH  072%=      5-min Rain = 0
KGU1 141324Z 24006KT 16/11 A3013 RMK A01 T01640108  RH  072%=      5-min Rain = 0
KGU1 141325Z 26005KT 17/11 A3013 RMK A01 T01650109  RH  072%=      5-min Rain = 0
KGU1 141326Z 26002KT 17/11 A3013 RMK A01 T01650108  RH  072%=      5-min Rain = 0
KGU1 141327Z 30002KT 17/11 A3013 RMK A01 T01650109  RH  072%=      5-min Rain = 0
KGU1 141328Z 21003KT 17/11 A3013 RMK A01 T01650109  RH  072%=      5-min Rain = 0
KGU1 141329Z 22004KT 16/11 A3013 RMK A01 T01640111  RH  073%=      5-min Rain = 0
KGU1 141330Z 21008KT 16/11 A3013 RMK A01 T01630113  RH  075%=      5-min Rain = 0
KGU1 141331Z 20009KT 16/12 A3013 RMK A01 T01580115  RH  078%=      5-min Rain = 0
KGU1 141332Z 20009KT 15/12 A3013 RMK A01 T01540116  RH  081%=      5-min Rain = 0
KGU1 141333Z 19012KT 15/12 A3013 RMK A01 T01510117  RH  083%=      5-min Rain = 0
KGU1 141334Z 19011KT 15/12 A3013 RMK A01 T01490117  RH  084%=      5-min Rain = 0
KGU1 141335Z 20009KT 15/12 A3014 RMK A01 T01480118  RH  085%=      5-min Rain = 0
KGU1 141336Z 21008KT 15/12 A3014 RMK A01 T01470118  RH  086%=      5-min Rain = 0
KGU1 141337Z 21007KT 15/12 A3014 RMK A01 T01470118  RH  086%=      5-min Rain = 0
KGU1 141338Z 20009KT 15/12 A3014 RMK A01 T01460118  RH  086%=      5-min Rain = 0
KGU1 141339Z 20008KT 15/12 A3014 RMK A01 T01460118  RH  086%=      5-min Rain = 0
KGU1 141340Z 20010KT 15/12 A3014 RMK A01 T01460118  RH  087%=      5-min Rain = 0
KGU1 141341Z 19009KT 15/12 A3014 RMK A01 T01460119  RH  087%=      5-min Rain = 0
KGU1 141342Z 20007KT 15/12 A3014 RMK A01 T01460119  RH  087%=      5-min Rain = 0
KGU1 141343Z 20008KT 15/12 A3014 RMK A01 T01460119  RH  087%=      5-min Rain = 0
KGU1 141344Z 19008KT 15/12 A3014 RMK A01 T01460119  RH  087%=      5-min Rain = 0
KGU1 141345Z 21009KT 15/12 A3014 RMK A01 T01460119  RH  087%=      5-min Rain = 0
KGU1 141346Z 21010KT 15/12 A3014 RMK A01 T01460119  RH  087%=      5-min Rain = 0
KGU1 141347Z 20009KT 15/12 A3014 RMK A01 T01460119  RH  087%=      5-min Rain = 0
KGU1 141348Z 21010KT 15/12 A3014 RMK A01 T01460119  RH  087%=      5-min Rain = 0
KGU1 141349Z 21007KT 15/12 A3014 RMK A01 T01470120  RH  087%=      5-min Rain = 0
KGU1 141350Z 21012KT 15/12 A3014 RMK A01 T01470119  RH  087%=      5-min Rain = 0
KGU1 141351Z 21011KT 15/12 A3014 RMK A01 T01460120  RH  087%=      5-min Rain = 0
KGU1 141352Z 21008KT 15/12 A3014 RMK A01 T01460120  RH  087%=      5-min Rain = 0
KGU1 141353Z 20008KT 15/12 A3014 RMK A01 T01460120  RH  088%=      5-min Rain = 0
KGU1 141354Z 20007KT 15/12 A3014 RMK A01 T01460120  RH  088%=      5-min Rain = 0
KGU1 141355Z 21008KT 15/12 A3014 RMK A01 T01450120  RH  088%=      5-min Rain = 0
KGU1 141356Z 20010KT 15/12 A3014 RMK A01 T01460121  RH  088%=      5-min Rain = 0
KGU1 141357Z 20010KT 15/12 A3014 RMK A01 T01450120  RH  088%=      5-min Rain = 0
KGU1 141358Z 20010KT 15/12 A3014 RMK A01 T01450121  RH  089%=      5-min Rain = 0
KGU1 141359Z 20009KT 15/12 A3014 RMK A01 T01450120  RH  089%=      5-min Rain = 0
KGU1 141400Z 20008KT 15/12 A3014 RMK A01 T01450121  RH  088%=      5-min Rain = 0
KGU1 141401Z 20008KT 14/12 A3014 RMK A01 T01440120  RH  088%=      5-min Rain = 0
KGU1 141402Z 21009KT 14/12 A3014 RMK A01 T01440120  RH  089%=      5-min Rain = 0
KGU1 141403Z 20008KT 14/12 A3014 RMK A01 T01440121  RH  089%=      5-min Rain = 0
KGU1 141404Z 21009KT 15/12 A3014 RMK A01 T01450121  RH  089%=      5-min Rain = 0
KGU1 141405Z 21010KT 15/12 A3014 RMK A01 T01450121  RH  089%=      5-min Rain = 0
KGU1 141406Z 22007KT 15/12 A3014 RMK A01 T01450121  RH  089%=      5-min Rain = 0
KGU1 141407Z 22009KT 15/12 A3014 RMK A01 T01460121  RH  088%=      5-min Rain = 0
KGU1 141408Z 21010KT 15/12 A3014 RMK A01 T01460121  RH  088%=      5-min Rain = 0
KGU1 141409Z 20009KT 15/12 A3014 RMK A01 T01460121  RH  088%=      5-min Rain = 0
KGU1 141410Z 21009KT 15/12 A3014 RMK A01 T01470122  RH  088%=      5-min Rain = 0
KGU1 141411Z 21008KT 15/12 A3014 RMK A01 T01490121  RH  087%=      5-min Rain = 0
KGU1 141412Z 21010KT 15/12 A3014 RMK A01 T01510121  RH  085%=      5-min Rain = 0
KGU1 141413Z 21008KT 15/12 A3014 RMK A01 T01510121  RH  085%=      5-min Rain = 0
KGU1 141414Z 21010KT 15/12 A3015 RMK A01 T01510122  RH  086%=      5-min Rain = 0
KGU1 141415Z 20009KT 15/12 A3015 RMK A01 T01500121  RH  086%=      5-min Rain = 0
KGU1 141416Z 20007KT 15/12 A3015 RMK A01 T01500122  RH  086%=      5-min Rain = 0
KGU1 141417Z 20010KT 15/12 A3015 RMK A01 T01500122  RH  087%=      5-min Rain = 0
KGU1 141418Z 21010KT 15/12 A3015 RMK A01 T01500121  RH  086%=      5-min Rain = 0
KGU1 141419Z 21009KT 15/12 A3015 RMK A01 T01490122  RH  087%=      5-min Rain = 0
KGU1 141420Z 21008KT 15/12 A3015 RMK A01 T01490122  RH  087%=      5-min Rain = 0
KGU1 141421Z 21009KT 15/12 A3015 RMK A01 T01490122  RH  088%=      5-min Rain = 0
KGU1 141422Z 20008KT 15/12 A3015 RMK A01 T01480122  RH  088%=      5-min Rain = 0
KGU1 141423Z 20007KT 15/12 A3015 RMK A01 T01490123  RH  088%=      5-min Rain = 0
KGU1 141424Z 20008KT 15/12 A3015 RMK A01 T01480123  RH  088%=      5-min Rain = 0
KGU1 141425Z 21008KT 15/12 A3015 RMK A01 T01490123  RH  088%=      5-min Rain = 0
KGU1 141426Z 20008KT 15/12 A3015 RMK A01 T01490123  RH  088%=      5-min Rain = 0
KGU1 141427Z 20009KT 15/12 A3015 RMK A01 T01490123  RH  088%=      5-min Rain = 0
KGU1 141428Z 20009KT 15/12 A3015 RMK A01 T01490122  RH  088%=      5-min Rain = 0
KGU1 141429Z 20009KT 15/12 A3015 RMK A01 T01480122  RH  088%=      5-min Rain = 0
KGU1 141430Z 21010KT 15/12 A3015 RMK A01 T01480123  RH  088%=      5-min Rain = 0
KGU1 141431Z 20009KT 15/12 A3015 RMK A01 T01480122  RH  088%=      5-min Rain = 0
KGU1 141432Z 20007KT 15/12 A3015 RMK A01 T01470122  RH  088%=      5-min Rain = 0
KGU1 141433Z 20009KT 15/12 A3015 RMK A01 T01470122  RH  088%=      5-min Rain = 0
KGU1 141434Z 19010KT 15/12 A3015 RMK A01 T01470121  RH  088%=      5-min Rain = 0
KGU1 141435Z 19009KT 15/12 A3015 RMK A01 T01450121  RH  088%=      5-min Rain = 0
KGU1 141436Z 20010KT 15/12 A3015 RMK A01 T01450121  RH  089%=      5-min Rain = 0
KGU1 141437Z 20008KT 14/12 A3015 RMK A01 T01440121  RH  089%=      5-min Rain = 0
KGU1 141438Z 19007KT 15/12 A3015 RMK A01 T01450121  RH  089%=      5-min Rain = 0
KGU1 141439Z 20012KT 15/12 A3015 RMK A01 T01450122  RH  089%=      5-min Rain = 0
KGU1 141440Z 19009KT 15/12 A3016 RMK A01 T01460122  RH  089%=      5-min Rain = 0
KGU1 141441Z 19008KT 15/12 A3016 RMK A01 T01460121  RH  089%=      5-min Rain = 0
KGU1 141442Z 20010KT 15/12 A3016 RMK A01 T01450121  RH  089%=      5-min Rain = 0
KGU1 141443Z 19008KT 15/12 A3016 RMK A01 T01450122  RH  089%=      5-min Rain = 0
KGU1 141444Z 21008KT 15/12 A3016 RMK A01 T01460122  RH  089%=      5-min Rain = 0
KGU1 141445Z 21009KT 15/12 A3016 RMK A01 T01470123  RH  089%=      5-min Rain = 0
KGU1 141446Z 20010KT 15/12 A3016 RMK A01 T01480123  RH  088%=      5-min Rain = 0
KGU1 141447Z 21009KT 15/12 A3016 RMK A01 T01480122  RH  088%=      5-min Rain = 0
KGU1 141448Z 20010KT 15/12 A3016 RMK A01 T01480123  RH  088%=      5-min Rain = 0
KGU1 141449Z 21008KT 15/12 A3016 RMK A01 T01480123  RH  088%=      5-min Rain = 0
KGU1 141450Z 20009KT 15/12 A3016 RMK A01 T01480123  RH  088%=      5-min Rain = 0
KGU1 141451Z 20009KT 15/12 A3016 RMK A01 T01480123  RH  089%=      5-min Rain = 0
KGU1 141452Z 21009KT 15/12 A3016 RMK A01 T01480123  RH  089%=      5-min Rain = 0
KGU1 141453Z 21009KT 15/12 A3016 RMK A01 T01480124  RH  088%=      5-min Rain = 0
KGU1 141454Z 21010KT 15/12 A3016 RMK A01 T01490124  RH  088%=      5-min Rain = 0
KGU1 141455Z 20011KT 15/12 A3016 RMK A01 T01490124  RH  088%=      5-min Rain = 0
KGU1 141456Z 20009KT 15/12 A3016 RMK A01 T01490123  RH  088%=      5-min Rain = 0
KGU1 141457Z 20009KT 15/12 A3016 RMK A01 T01490124  RH  088%=      5-min Rain = 0
KGU1 141458Z 20009KT 15/12 A3016 RMK A01 T01500124  RH  088%=      5-min Rain = 0
KGU1 141459Z 19007KT 15/12 A3016 RMK A01 T01500124  RH  088%=      5-min Rain = 0
KGU1 141500Z 21009G14KT 15/12 A3016 RMK A01 T01500124  RH  088%=      5-min Rain = 0
KGU1 141501Z 22010KT 15/12 A3016 RMK A01 T01500123  RH  087%=      5-min Rain = 0
KGU1 141502Z 20009KT 15/12 A3016 RMK A01 T01500123  RH  087%=      5-min Rain = 0
KGU1 141503Z 19007KT 15/12 A3017 RMK A01 T01490123  RH  088%=      5-min Rain = 0
KGU1 141504Z 21007KT 15/12 A3017 RMK A01 T01490123  RH  088%=      5-min Rain = 0
KGU1 141505Z 22008KT 15/12 A3017 RMK A01 T01500124  RH  088%=      5-min Rain = 0
KGU1 141506Z 21009KT 15/12 A3017 RMK A01 T01510123  RH  087%=      5-min Rain = 0
KGU1 141507Z 21009KT 15/12 A3017 RMK A01 T01510123  RH  086%=      5-min Rain = 0
KGU1 141508Z 22009KT 15/12 A3017 RMK A01 T01510122  RH  086%=      5-min Rain = 0
KGU1 141509Z 22007KT 15/12 A3017 RMK A01 T01520121  RH  085%=      5-min Rain = 0
KGU1 141510Z 22006KT 15/12 A3017 RMK A01 T01540120  RH  083%=      5-min Rain = 0
KGU1 141511Z 22005KT 16/12 A3017 RMK A01 T01550119  RH  082%=      5-min Rain = 0
KGU1 141512Z 21008KT 16/12 A3017 RMK A01 T01550120  RH  083%=      5-min Rain = 0
KGU1 141513Z 21009KT 15/12 A3017 RMK A01 T01540121  RH  084%=      5-min Rain = 0
KGU1 141514Z 21007KT 15/12 A3017 RMK A01 T01520122  RH  086%=      5-min Rain = 0
KGU1 141515Z 21007KT 15/12 A3017 RMK A01 T01510123  RH  087%=      5-min Rain = 0
KGU1 141516Z 21005KT 15/12 A3017 RMK A01 T01510123  RH  087%=      5-min Rain = 0
KGU1 141517Z 21008KT 15/12 A3017 RMK A01 T01500123  RH  087%=      5-min Rain = 0
KGU1 141518Z 21011KT 15/12 A3017 RMK A01 T01500123  RH  087%=      5-min Rain = 0
KGU1 141519Z 20009KT 15/12 A3017 RMK A01 T01500123  RH  087%=      5-min Rain = 0
KGU1 141520Z 20009KT 15/12 A3017 RMK A01 T01500122  RH  087%=      5-min Rain = 0
KGU1 141521Z 21008KT 15/12 A3017 RMK A01 T01510123  RH  087%=      5-min Rain = 0
KGU1 141522Z 21009KT 15/12 A3017 RMK A01 T01500123  RH  088%=      5-min Rain = 0
KGU1 141523Z 21009KT 15/12 A3017 RMK A01 T01500124  RH  088%=      5-min Rain = 0
KGU1 141524Z 21008KT 15/12 A3017 RMK A01 T01490123  RH  088%=      5-min Rain = 0
KGU1 141525Z 23005KT 15/12 A3017 RMK A01 T01490124  RH  088%=      5-min Rain = 0
KGU1 141526Z 21006KT 15/12 A3017 RMK A01 T01500124  RH  088%=      5-min Rain = 0
KGU1 141527Z 22006KT 15/13 A3017 RMK A01 T01500125  RH  088%=      5-min Rain = 0
KGU1 141528Z 22008KT 15/13 A3017 RMK A01 T01510125  RH  088%=      5-min Rain = 0
KGU1 141529Z 21009KT 15/12 A3017 RMK A01 T01510124  RH  087%=      5-min Rain = 0
KGU1 141530Z 22008KT 15/13 A3017 RMK A01 T01510125  RH  088%=      5-min Rain = 0
KGU1 141531Z 22008KT 15/13 A3017 RMK A01 T01510125  RH  088%=      5-min Rain = 0
KGU1 141532Z 22010KT 15/13 A3017 RMK A01 T01500126  RH  088%=      5-min Rain = 0
KGU1 141533Z 21007KT 15/13 A3017 RMK A01 T01510125  RH  088%=      5-min Rain = 0
KGU1 141534Z 22007KT 15/13 A3017 RMK A01 T01520125  RH  088%=      5-min Rain = 0
KGU1 141535Z 22007KT 15/13 A3017 RMK A01 T01520126  RH  088%=      5-min Rain = 0
KGU1 141536Z 22008KT 15/13 A3017 RMK A01 T01520127  RH  088%=      5-min Rain = 0
KGU1 141537Z 22008KT 15/13 A3017 RMK A01 T01510127  RH  089%=      5-min Rain = 0
KGU1 141538Z 21010KT 15/13 A3017 RMK A01 T01510127  RH  089%=      5-min Rain = 0
KGU1 141539Z 21011KT 15/13 A3017 RMK A01 T01510126  RH  088%=      5-min Rain = 0
KGU1 141540Z 21010KT 15/13 A3017 RMK A01 T01510126  RH  088%=      5-min Rain = 0
KGU1 141541Z 22007KT 15/13 A3017 RMK A01 T01510126  RH  088%=      5-min Rain = 0
KGU1 141542Z 21008KT 15/13 A3017 RMK A01 T01520126  RH  088%=      5-min Rain = 0
KGU1 141543Z 21011KT 15/13 A3017 RMK A01 T01520126  RH  088%=      5-min Rain = 0
KGU1 141544Z 21011KT 15/13 A3017 RMK A01 T01530126  RH  087%=      5-min Rain = 0
KGU1 141545Z 21011KT 15/13 A3017 RMK A01 T01530126  RH  087%=      5-min Rain = 0
KGU1 141546Z 21011KT 15/13 A3017 RMK A01 T01530126  RH  087%=      5-min Rain = 0
KGU1 141547Z 21010KT 15/13 A3017 RMK A01 T01520126  RH  088%=      5-min Rain = 0
KGU1 141548Z 21009KT 15/13 A3017 RMK A01 T01520127  RH  089%=      5-min Rain = 0
KGU1 141549Z 21010KT 15/13 A3017 RMK A01 T01510128  RH  089%=      5-min Rain = 0
KGU1 141550Z 21009KT 15/13 A3017 RMK A01 T01510128  RH  089%=      5-min Rain = 0
KGU1 141551Z 21010KT 15/13 A3017 RMK A01 T01510128  RH  090%=      5-min Rain = 0
KGU1 141552Z 21008KT 15/13 A3017 RMK A01 T01510128  RH  090%=      5-min Rain = 0
KGU1 141553Z 21008KT 15/13 A3017 RMK A01 T01520128  RH  089%=      5-min Rain = 0
KGU1 141554Z 22009KT 15/13 A3017 RMK A01 T01530126  RH  087%=      5-min Rain = 0
KGU1 141555Z 20009KT 15/13 A3017 RMK A01 T01540125  RH  087%=      5-min Rain = 0
KGU1 141556Z 20008KT 15/13 A3017 RMK A01 T01540127  RH  087%=      5-min Rain = 0
KGU1 141557Z 20007KT 15/13 A3017 RMK A01 T01530128  RH  089%=      5-min Rain = 0
KGU1 141558Z 22010KT 15/13 A3017 RMK A01 T01530130  RH  090%=      5-min Rain = 0
KGU1 141559Z 22010KT 15/13 A3017 RMK A01 T01520129  RH  090%=      5-min Rain = 0
KGU1 141600Z 21012KT 15/13 A3017 RMK A01 T01520129  RH  090%=      5-min Rain = 0
KGU1 141601Z 21010KT 15/13 A3017 RMK A01 T01510128  RH  090%=      5-min Rain = 0
KGU1 141602Z 22010KT 15/13 A3016 RMK A01 T01510128  RH  090%=      5-min Rain = 0
KGU1 141603Z 21011KT 15/13 A3016 RMK A01 T01520129  RH  090%=      5-min Rain = 0
KGU1 141604Z 21011KT 15/13 A3016 RMK A01 T01520127  RH  089%=      5-min Rain = 0
KGU1 141605Z 22010KT 15/13 A3016 RMK A01 T01520128  RH  089%=      5-min Rain = 0
KGU1 141606Z 22009KT 15/13 A3016 RMK A01 T01520128  RH  089%=      5-min Rain = 0
KGU1 141607Z 22009KT 15/13 A3016 RMK A01 T01530128  RH  088%=      5-min Rain = 0
KGU1 141608Z 21011KT 15/13 A3016 RMK A01 T01540127  RH  087%=      5-min Rain = 0
KGU1 141609Z 22010KT 16/13 A3016 RMK A01 T01550127  RH  087%=      5-min Rain = 0
KGU1 141610Z 22011KT 16/13 A3016 RMK A01 T01560126  RH  086%=      5-min Rain = 0
KGU1 141611Z 22011KT 16/13 A3016 RMK A01 T01560126  RH  086%=      5-min Rain = 0
KGU1 141612Z 22011KT 16/13 A3016 RMK A01 T01560126  RH  086%=      5-min Rain = 0
KGU1 141613Z 22008KT 16/13 A3016 RMK A01 T01570126  RH  085%=      5-min Rain = 0
KGU1 141614Z 23009KT 16/13 A3016 RMK A01 T01580125  RH  084%=      5-min Rain = 0
KGU1 141615Z 23008G13KT 16/12 A3016 RMK A01 T01590123  RH  083%=      5-min Rain = 0
KGU1 141616Z 21011KT 16/12 A3016 RMK A01 T01600121  RH  081%=      5-min Rain = 0
KGU1 141617Z 23008KT 16/12 A3017 RMK A01 T01620122  RH  080%=      5-min Rain = 0
KGU1 141618Z 23009KT 16/12 A3016 RMK A01 T01610123  RH  081%=      5-min Rain = 0
KGU1 141619Z 23010KT 16/12 A3016 RMK A01 T01620122  RH  080%=      5-min Rain = 0
KGU1 141620Z 23009KT 16/12 A3016 RMK A01 T01620121  RH  080%=      5-min Rain = 0
KGU1 141621Z 23009KT 16/12 A3016 RMK A01 T01630122  RH  080%=      5-min Rain = 0
KGU1 141622Z 22011KT 16/12 A3016 RMK A01 T01620122  RH  080%=      5-min Rain = 0
KGU1 141623Z 22009KT 16/12 A3017 RMK A01 T01610122  RH  081%=      5-min Rain = 0
KGU1 141624Z 21010KT 16/12 A3017 RMK A01 T01610123  RH  081%=      5-min Rain = 0
KGU1 141625Z 23009KT 16/12 A3016 RMK A01 T01600122  RH  081%=      5-min Rain = 0
KGU1 141626Z 22009G14KT 16/12 A3016 RMK A01 T01610121  RH  080%=      5-min Rain = 0
KGU1 141627Z 21012KT 16/12 A3016 RMK A01 T01620121  RH  080%=      5-min Rain = 0
KGU1 141628Z 21012KT 16/12 A3016 RMK A01 T01620121  RH  080%=      5-min Rain = 0
KGU1 141629Z 22010KT 16/12 A3017 RMK A01 T01620122  RH  080%=      5-min Rain = 0
KGU1 141630Z 21011KT 16/12 A3017 RMK A01 T01620122  RH  080%=      5-min Rain = 0
KGU1 141631Z 21010KT 16/12 A3017 RMK A01 T01610123  RH  081%=      5-min Rain = 0
KGU1 141632Z 21010KT 16/12 A3017 RMK A01 T01610124  RH  082%=      5-min Rain = 0
KGU1 141633Z 22011KT 16/12 A3016 RMK A01 T01610121  RH  080%=      5-min Rain = 0
KGU1 141634Z 22010KT 16/12 A3016 RMK A01 T01620120  RH  079%=      5-min Rain = 0
KGU1 141635Z 20009KT 16/12 A3016 RMK A01 T01630119  RH  078%=      5-min Rain = 0
KGU1 141636Z 20008KT 16/12 A3016 RMK A01 T01640120  RH  079%=      5-min Rain = 0
KGU1 141637Z 23008KT 16/12 A3016 RMK A01 T01640121  RH  079%=      5-min Rain = 0
KGU1 141638Z 21010KT 16/12 A3016 RMK A01 T01640120  RH  078%=      5-min Rain = 0
KGU1 141639Z 21011KT 17/12 A3016 RMK A01 T01650121  RH  078%=      5-min Rain = 0
KGU1 141640Z 22009KT 16/12 A3016 RMK A01 T01640120  RH  078%=      5-min Rain = 0
KGU1 141641Z 21010KT 16/12 A3016 RMK A01 T01640121  RH  078%=      5-min Rain = 0
KGU1 141642Z 22009KT 16/12 A3016 RMK A01 T01640119  RH  077%=      5-min Rain = 0
KGU1 141643Z 23007KT 17/12 A3016 RMK A01 T01660119  RH  077%=      5-min Rain = 0
KGU1 141644Z 22006KT 17/12 A3016 RMK A01 T01670120  RH  077%=      5-min Rain = 0
KGU1 141645Z 22008KT 17/12 A3016 RMK A01 T01680120  RH  076%=      5-min Rain = 0
KGU1 141646Z 23006KT 17/12 A3016 RMK A01 T01690118  RH  075%=      5-min Rain = 0
KGU1 141647Z 22007KT 17/12 A3016 RMK A01 T01700118  RH  074%=      5-min Rain = 0
KGU1 141648Z 22008KT 17/12 A3016 RMK A01 T01700119  RH  075%=      5-min Rain = 0
KGU1 141649Z 22008KT 17/12 A3016 RMK A01 T01690119  RH  075%=      5-min Rain = 0
KGU1 141650Z 22008KT 17/12 A3016 RMK A01 T01690118  RH  075%=      5-min Rain = 0
KGU1 141651Z 23006KT 17/12 A3016 RMK A01 T01680118  RH  075%=      5-min Rain = 0
KGU1 141652Z 23007KT 17/12 A3016 RMK A01 T01680120  RH  076%=      5-min Rain = 0
KGU1 141653Z 23007KT 17/12 A3016 RMK A01 T01690118  RH  075%=      5-min Rain = 0
KGU1 141654Z 24008KT 17/12 A3016 RMK A01 T01690119  RH  075%=      5-min Rain = 0
KGU1 141655Z 25008KT 17/12 A3016 RMK A01 T01690118  RH  075%=      5-min Rain = 0
KGU1 141656Z 23007KT 17/12 A3016 RMK A01 T01690118  RH  075%=      5-min Rain = 0
KGU1 141657Z 22008KT 17/12 A3016 RMK A01 T01700117  RH  074%=      5-min Rain = 0
KGU1 141658Z 22010KT 17/12 A3016 RMK A01 T01710116  RH  073%=      5-min Rain = 0
KGU1 141659Z 22007KT 17/12 A3016 RMK A01 T01710116  RH  073%=      5-min Rain = 0
KGU1 141700Z 22008KT 17/12 A3016 RMK A01 T01700117  RH  073%=      5-min Rain = 0
KGU1 141701Z 23007KT 17/12 A3016 RMK A01 T01710117  RH  073%=      5-min Rain = 0
KGU1 141702Z 25006KT 17/12 A3016 RMK A01 T01720117  RH  073%=      5-min Rain = 0
KGU1 141703Z 25007KT 17/12 A3016 RMK A01 T01720115  RH  072%=      5-min Rain = 0
KGU1 141704Z 23007KT 17/12 A3016 RMK A01 T01730115  RH  071%=      5-min Rain = 0
KGU1 141705Z 23007KT 17/11 A3016 RMK A01 T01730112  RH  070%=      5-min Rain = 0
KGU1 141706Z 24005KT 17/11 A3016 RMK A01 T01730113  RH  070%=      5-min Rain = 0
KGU1 141707Z 24005KT 17/11 A3016 RMK A01 T01730112  RH  070%=      5-min Rain = 0
KGU1 141708Z 23004KT 17/11 A3016 RMK A01 T01730114  RH  070%=      5-min Rain = 0
KGU1 141709Z 21005KT 18/12 A3016 RMK A01 T01750115  RH  071%=      5-min Rain = 0
KGU1 141710Z 23005KT 18/12 A3016 RMK A01 T01750116  RH  070%=      5-min Rain = 0
KGU1 141711Z 24003KT 18/12 A3016 RMK A01 T01760117  RH  071%=      5-min Rain = 0
KGU1 141712Z 24004KT 18/12 A3016 RMK A01 T01760117  RH  071%=      5-min Rain = 0
KGU1 141713Z 23004KT 18/12 A3016 RMK A01 T01750115  RH  070%=      5-min Rain = 0
KGU1 141714Z 22004KT 18/12 A3016 RMK A01 T01760118  RH  071%=      5-min Rain = 0
KGU1 141715Z 22004KT 18/11 A3016 RMK A01 T01770114  RH  069%=      5-min Rain = 0
KGU1 141716Z 23002KT 18/11 A3016 RMK A01 T01760114  RH  069%=      5-min Rain = 0
KGU1 141717Z 24007KT 18/11 A3016 RMK A01 T01770114  RH  069%=      5-min Rain = 0
KGU1 141718Z 21006KT 18/11 A3016 RMK A01 T01780114  RH  069%=      5-min Rain = 0
KGU1 141719Z 23006KT 18/12 A3016 RMK A01 T01780116  RH  070%=      5-min Rain = 0
KGU1 141720Z 21006KT 18/12 A3016 RMK A01 T01780117  RH  070%=      5-min Rain = 0
KGU1 141721Z 23007KT 18/12 A3016 RMK A01 T01800118  RH  070%=      5-min Rain = 0
KGU1 141722Z 22008KT 18/12 A3016 RMK A01 T01790116  RH  069%=      5-min Rain = 0
KGU1 141723Z 23007KT 18/12 A3016 RMK A01 T01770117  RH  070%=      5-min Rain = 0
KGU1 141724Z 22006KT 18/12 A3016 RMK A01 T01780116  RH  070%=      5-min Rain = 0
KGU1 141725Z 22006KT 18/11 A3016 RMK A01 T01780114  RH  068%=      5-min Rain = 0
KGU1 141726Z 21007KT 18/11 A3016 RMK A01 T01790114  RH  068%=      5-min Rain = 0
KGU1 141727Z 22009KT 18/12 A3016 RMK A01 T01790116  RH  069%=      5-min Rain = 0
KGU1 141728Z 22011KT 18/12 A3016 RMK A01 T01780117  RH  070%=      5-min Rain = 0
KGU1 141729Z 22009KT 18/12 A3016 RMK A01 T01770118  RH  071%=      5-min Rain = 0
KGU1 141730Z 21008KT 18/12 A3016 RMK A01 T01770118  RH  071%=      5-min Rain = 0
KGU1 141731Z 22010KT 18/12 A3016 RMK A01 T01770118  RH  071%=      5-min Rain = 0
KGU1 141732Z 22011KT 18/12 A3016 RMK A01 T01770116  RH  070%=      5-min Rain = 0
KGU1 141733Z 22009KT 18/11 A3016 RMK A01 T01770113  RH  069%=      5-min Rain = 0
KGU1 141734Z 22005KT 18/11 A3016 RMK A01 T01770112  RH  068%=      5-min Rain = 0
KGU1 141735Z 24006KT 18/11 A3016 RMK A01 T01770112  RH  068%=      5-min Rain = 0
KGU1 141736Z 24006KT 18/11 A3016 RMK A01 T01770113  RH  068%=      5-min Rain = 0
KGU1 141737Z 23005KT 18/11 A3016 RMK A01 T01780113  RH  068%=      5-min Rain = 0
KGU1 141738Z 24007KT 18/11 A3015 RMK A01 T01780114  RH  068%=      5-min Rain = 0
KGU1 141739Z 23005KT 18/11 A3015 RMK A01 T01800113  RH  068%=      5-min Rain = 0
KGU1 141740Z 22006KT 18/11 A3015 RMK A01 T01800114  RH  068%=      5-min Rain = 0
KGU1 141741Z 24006KT 18/12 A3015 RMK A01 T01800115  RH  068%=      5-min Rain = 0
KGU1 141742Z 23006KT 18/12 A3015 RMK A01 T01810115  RH  067%=      5-min Rain = 0
KGU1 141743Z 24004KT 18/11 A3015 RMK A01 T01810113  RH  067%=      5-min Rain = 0
KGU1 141744Z 22005KT 18/11 A3015 RMK A01 T01800113  RH  067%=      5-min Rain = 0
KGU1 141745Z 22007KT 18/11 A3015 RMK A01 T01800114  RH  068%=      5-min Rain = 0
KGU1 141746Z 24003KT 18/11 A3015 RMK A01 T01800113  RH  067%=      5-min Rain = 0
KGU1 141747Z 25000KT 18/11 A3015 RMK A01 T01800113  RH  067%=      5-min Rain = 0
KGU1 141748Z 25003KT 18/11 A3015 RMK A01 T01820113  RH  067%=      5-min Rain = 0
KGU1 141749Z 24004KT 18/11 A3015 RMK A01 T01820112  RH  066%=      5-min Rain = 0
KGU1 141750Z 24005KT 18/11 A3015 RMK A01 T01830112  RH  065%=      5-min Rain = 0
KGU1 141751Z 23004KT 18/11 A3015 RMK A01 T01840113  RH  066%=      5-min Rain = 0
KGU1 141752Z 22004KT 19/11 A3015 RMK A01 T01850114  RH  066%=      5-min Rain = 0
KGU1 141753Z 23007KT 19/11 A3015 RMK A01 T01850114  RH  066%=      5-min Rain = 0
KGU1 141754Z 21005KT 18/11 A3015 RMK A01 T01840112  RH  065%=      5-min Rain = 0
KGU1 141755Z 22007G12KT 18/11 A3015 RMK A01 T01830113  RH  066%=      5-min Rain = 0
KGU1 141756Z 22008KT 18/11 A3015 RMK A01 T01820110  RH  065%=      5-min Rain = 0
KGU1 141757Z 23007KT 18/11 A3015 RMK A01 T01820110  RH  065%=      5-min Rain = 0
KGU1 141758Z 22007KT 18/11 A3015 RMK A01 T01830111  RH  065%=      5-min Rain = 0
KGU1 141759Z 23007KT 18/11 A3015 RMK A01 T01840112  RH  065%=      5-min Rain = 0
KGU1 141800Z 24006KT 18/11 A3015 RMK A01 T01840111  RH  065%=      5-min Rain = 0
KGU1 141801Z 22006KT 19/11 A3015 RMK A01 T01850113  RH  065%=      5-min Rain = 0
KGU1 141802Z 23007KT 19/11 A3015 RMK A01 T01860113  RH  065%=      5-min Rain = 0
KGU1 141803Z 21006KT 19/11 A3015 RMK A01 T01860113  RH  065%=      5-min Rain = 0
KGU1 141804Z 23005KT 18/11 A3015 RMK A01 T01840113  RH  066%=      5-min Rain = 0
KGU1 141805Z 23006KT 18/11 A3015 RMK A01 T01840112  RH  065%=      5-min Rain = 0
KGU1 141806Z 25008KT 18/11 A3015 RMK A01 T01840113  RH  065%=      5-min Rain = 0
KGU1 141807Z 24007KT 18/11 A3015 RMK A01 T01840111  RH  065%=      5-min Rain = 0
KGU1 141808Z 23005KT 18/11 A3015 RMK A01 T01830110  RH  065%=      5-min Rain = 0
KGU1 141809Z 23006KT 18/11 A3015 RMK A01 T01830112  RH  065%=      5-min Rain = 0
KGU1 141810Z 23007KT 18/11 A3015 RMK A01 T01840112  RH  065%=      5-min Rain = 0
KGU1 141811Z 23005KT 18/11 A3015 RMK A01 T01830110  RH  064%=      5-min Rain = 0
KGU1 141812Z 24007KT 18/11 A3015 RMK A01 T01840113  RH  066%=      5-min Rain = 0
KGU1 141813Z 24005KT 18/11 A3015 RMK A01 T01840110  RH  064%=      5-min Rain = 0
KGU1 141814Z 25004KT 18/11 A3015 RMK A01 T01820110  RH  065%=      5-min Rain = 0
KGU1 141815Z 26005KT 18/11 A3015 RMK A01 T01820110  RH  065%=      5-min Rain = 0
KGU1 141816Z 28005KT 18/11 A3014 RMK A01 T01830111  RH  065%=      5-min Rain = 0
KGU1 141817Z 26007KT 19/11 A3014 RMK A01 T01860112  RH  064%=      5-min Rain = 0
KGU1 141818Z 26006KT 19/11 A3014 RMK A01 T01870109  RH  062%=      5-min Rain = 0
KGU1 141819Z 24005KT 19/11 A3014 RMK A01 T01870110  RH  063%=      5-min Rain = 0
KGU1 141820Z 28008G13KT 19/11 A3014 RMK A01 T01890112  RH  063%=      5-min Rain = 0
KGU1 141821Z 29010KT 19/11 A3014 RMK A01 T01900114  RH  064%=      5-min Rain = 0
KGU1 141822Z 29006KT 19/12 A3014 RMK A01 T01910115  RH  063%=      5-min Rain = 0
KGU1 141823Z 29006KT 19/11 A3014 RMK A01 T01920114  RH  062%=      5-min Rain = 0
KGU1 141824Z 31007KT 19/11 A3014 RMK A01 T01900114  RH  063%=      5-min Rain = 0
KGU1 141825Z 31009KT 19/11 A3014 RMK A01 T01900113  RH  063%=      5-min Rain = 0
KGU1 141826Z 28008KT 19/11 A3014 RMK A01 T01900114  RH  064%=      5-min Rain = 0
KGU1 141827Z 30009G14KT 19/12 A3014 RMK A01 T01920115  RH  063%=      5-min Rain = 0
KGU1 141828Z 28007KT 19/11 A3014 RMK A01 T01930114  RH  062%=      5-min Rain = 0
KGU1 141829Z 30007KT 19/11 A3014 RMK A01 T01940114  RH  062%=      5-min Rain = 0
KGU1 141830Z 30007KT 19/11 A3013 RMK A01 T01940114  RH  062%=      5-min Rain = 0
KGU1 141831Z 29007KT 19/11 A3013 RMK A01 T01940114  RH  062%=      5-min Rain = 0
KGU1 141832Z 30008G14KT 20/12 A3013 RMK A01 T01960118  RH  063%=      5-min Rain = 0
KGU1 141833Z 32011KT 20/12 A3013 RMK A01 T01990116  RH  061%=      5-min Rain = 0
KGU1 141834Z 30013G19KT 20/11 A3013 RMK A01 T01970112  RH  060%=      5-min Rain = 0
KGU1 141835Z 31007KT 20/11 A3013 RMK A01 T01950112  RH  061%=      5-min Rain = 0
KGU1 141836Z 30011G16KT 20/11 A3013 RMK A01 T01950113  RH  061%=      5-min Rain = 0
KGU1 141837Z 29012G17KT 19/11 A3013 RMK A01 T01940109  RH  060%=      5-min Rain = 0
KGU1 141838Z 31009KT 19/11 A3013 RMK A01 T01940111  RH  061%=      5-min Rain = 0
KGU1 141839Z 31005KT 20/11 A3013 RMK A01 T01960113  RH  061%=      5-min Rain = 0
KGU1 141840Z 31004KT 20/11 A3013 RMK A01 T02000114  RH  060%=      5-min Rain = 0
KGU1 141841Z 27005KT 20/11 A3013 RMK A01 T02000112  RH  059%=      5-min Rain = 0
KGU1 141842Z 29008KT 20/11 A3013 RMK A01 T02000114  RH  060%=      5-min Rain = 0
KGU1 141843Z 30007KT 20/11 A3013 RMK A01 T01980111  RH  059%=      5-min Rain = 0
KGU1 141844Z 31007G14KT 20/11 A3013 RMK A01 T01970112  RH  060%=      5-min Rain = 0
KGU1 141845Z 29013KT 20/11 A3013 RMK A01 T01980112  RH  060%=      5-min Rain = 0
KGU1 141846Z 29007KT 20/11 A3013 RMK A01 T01960109  RH  059%=      5-min Rain = 0
KGU1 141847Z 28008KT 19/11 A3013 RMK A01 T01940111  RH  060%=      5-min Rain = 0
KGU1 141848Z 29009KT 20/11 A3013 RMK A01 T01960111  RH  060%=      5-min Rain = 0
KGU1 141849Z 28005KT 20/11 A3013 RMK A01 T01960108  RH  059%=      5-min Rain = 0
KGU1 141850Z 31006KT 20/11 A3013 RMK A01 T01970110  RH  059%=      5-min Rain = 0
KGU1 141851Z 30011KT 20/11 A3013 RMK A01 T01960108  RH  059%=      5-min Rain = 0
KGU1 141852Z 29005KT 19/11 A3013 RMK A01 T01930107  RH  060%=      5-min Rain = 0
KGU1 141853Z 29008KT 19/11 A3013 RMK A01 T01940111  RH  061%=      5-min Rain = 0
KGU1 141854Z 29007G13KT 20/11 A3013 RMK A01 T01960108  RH  059%=      5-min Rain = 0
KGU1 141855Z 30009KT 20/11 A3013 RMK A01 T01960107  RH  059%=      5-min Rain = 0
KGU1 141856Z 30013KT 20/11 A3013 RMK A01 T01980109  RH  058%=      5-min Rain = 0
KGU1 141857Z 30010KT 20/11 A3013 RMK A01 T02000109  RH  058%=      5-min Rain = 0
KGU1 141858Z 30011KT 20/11 A3013 RMK A01 T02010109  RH  057%=      5-min Rain = 0
KGU1 141859Z 30010KT 20/11 A3012 RMK A01 T01980107  RH  058%=      5-min Rain = 0
KGU1 141900Z 27011KT 20/11 A3012 RMK A01 T01980110  RH  059%=      5-min Rain = 0
KGU1 141901Z 27010KT 20/11 A3012 RMK A01 T01980110  RH  059%=      5-min Rain = 0
KGU1 141902Z 27008G13KT 20/11 A3012 RMK A01 T01980111  RH  059%=      5-min Rain = 0
KGU1 141903Z 29007KT 20/11 A3012 RMK A01 T02000110  RH  058%=      5-min Rain = 0
KGU1 141904Z 29010KT 20/11 A3012 RMK A01 T02010111  RH  058%=      5-min Rain = 0
KGU1 141905Z 28010KT 20/11 A3012 RMK A01 T01990109  RH  058%=      5-min Rain = 0
KGU1 141906Z 29008KT 20/11 A3012 RMK A01 T01990111  RH  059%=      5-min Rain = 0
KGU1 141907Z 30009KT 20/11 A3012 RMK A01 T02010111  RH  058%=      5-min Rain = 0
KGU1 141908Z 29009KT 20/11 A3012 RMK A01 T02010111  RH  058%=      5-min Rain = 0
KGU1 141909Z 26006KT 20/11 A3011 RMK A01 T02020110  RH  057%=      5-min Rain = 0
KGU1 141910Z 30006KT 20/11 A3012 RMK A01 T02020110  RH  057%=      5-min Rain = 0
KGU1 141911Z 29003KT 20/11 A3011 RMK A01 T01990107  RH  057%=      5-min Rain = 0
KGU1 141912Z 26004KT 20/11 A3011 RMK A01 T01980110  RH  059%=      5-min Rain = 0
KGU1 141913Z 28006KT 20/11 A3011 RMK A01 T02010112  RH  059%=      5-min Rain = 0
KGU1 141914Z 28008KT 20/11 A3011 RMK A01 T02030111  RH  057%=      5-min Rain = 0
KGU1 141915Z 28006KT 21/11 A3011 RMK A01 T02050109  RH  056%=      5-min Rain = 0
KGU1 141916Z 27007KT 20/11 A3011 RMK A01 T02040107  RH  055%=      5-min Rain = 0
KGU1 141917Z 24006KT 20/11 A3011 RMK A01 T02040107  RH  056%=      5-min Rain = 0
KGU1 141918Z 26010KT 21/11 A3011 RMK A01 T02050108  RH  056%=      5-min Rain = 0
KGU1 141919Z 26008KT 20/11 A3011 RMK A01 T02040106  RH  055%=      5-min Rain = 0
KGU1 141920Z 28009G16KT 20/11 A3011 RMK A01 T02040106  RH  055%=      5-min Rain = 0
KGU1 141921Z 26008KT 20/11 A3011 RMK A01 T02040109  RH  057%=      5-min Rain = 0
KGU1 141922Z 25009G15KT 21/11 A3011 RMK A01 T02050106  RH  055%=      5-min Rain = 0
KGU1 141923Z 26010KT 20/11 A3011 RMK A01 T02030106  RH  055%=      5-min Rain = 0
KGU1 141924Z 27009KT 20/11 A3011 RMK A01 T02030107  RH  056%=      5-min Rain = 0
KGU1 141925Z 29007KT 20/11 A3011 RMK A01 T02040109  RH  056%=      5-min Rain = 0
KGU1 141926Z 30011G16KT 21/11 A3011 RMK A01 T02050109  RH  056%=      5-min Rain = 0
KGU1 141927Z 29009KT 20/11 A3011 RMK A01 T02010107  RH  056%=      5-min Rain = 0
KGU1 141928Z 29007KT 20/11 A3011 RMK A01 T02000108  RH  057%=      5-min Rain = 0
KGU1 141929Z 29008KT 20/11 A3011 RMK A01 T02010109  RH  058%=      5-min Rain = 0
KGU1 141930Z 30009KT 20/11 A3011 RMK A01 T02020108  RH  057%=      5-min Rain = 0
KGU1 141931Z 30012KT 20/11 A3011 RMK A01 T02010111  RH  058%=      5-min Rain = 0
KGU1 141932Z 30013KT 20/11 A3011 RMK A01 T01990113  RH  060%=      5-min Rain = 0
KGU1 141933Z 30009KT 20/11 A3011 RMK A01 T01970114  RH  061%=      5-min Rain = 0
KGU1 141934Z 29009KT 20/11 A3011 RMK A01 T01970113  RH  060%=      5-min Rain = 0
KGU1 141935Z 30008KT 20/11 A3011 RMK A01 T01970112  RH  060%=      5-min Rain = 0
KGU1 141936Z 28008KT 20/11 A3011 RMK A01 T01980112  RH  060%=      5-min Rain = 0
KGU1 141937Z 27007KT 20/11 A3011 RMK A01 T02000113  RH  059%=      5-min Rain = 0
KGU1 141938Z 29005KT 20/11 A3011 RMK A01 T02020113  RH  059%=      5-min Rain = 0
KGU1 141939Z 27008KT 20/11 A3011 RMK A01 T02030110  RH  057%=      5-min Rain = 0
KGU1 141940Z 25008KT 21/11 A3011 RMK A01 T02050110  RH  056%=      5-min Rain = 0
KGU1 141941Z 25010KT 21/11 A3011 RMK A01 T02060106  RH  055%=      5-min Rain = 0
KGU1 141942Z 26009KT 21/11 A301 RMK A01 T02060107  RH  055%=      5-min Rain = 0
KGU1 141943Z 27012KT 21/11 A301 RMK A01 T02080109  RH  055%=      5-min Rain = 0
KGU1 141944Z 25011KT 21/11 A301 RMK A01 T02090110  RH  055%=      5-min Rain = 0
KGU1 141945Z 25009KT 21/11 A301 RMK A01 T02080109  RH  055%=      5-min Rain = 0
KGU1 141946Z 27006KT 21/11 A301 RMK A01 T02090110  RH  055%=      5-min Rain = 0
KGU1 141947Z 27006G11KT 21/11 A301 RMK A01 T02090112  RH  055%=      5-min Rain = 0
KGU1 141948Z 30007KT 21/11 A301 RMK A01 T02080111  RH  056%=      5-min Rain = 0
KGU1 141949Z 26006KT 21/11 A301 RMK A01 T02070111  RH  056%=      5-min Rain = 0
KGU1 141950Z 22004KT 21/11 A301 RMK A01 T02090110  RH  055%=      5-min Rain = 0
KGU1 141951Z 25009KT 21/11 A301 RMK A01 T02110109  RH  054%=      5-min Rain = 0
KGU1 141952Z 25006KT 21/11 A301 RMK A01 T02100107  RH  054%=      5-min Rain = 0
KGU1 141953Z 24007G14KT 21/11 A301 RMK A01 T02100110  RH  055%=      5-min Rain = 0
KGU1 141954Z 24011KT 21/11 A301 RMK A01 T02090106  RH  054%=      5-min Rain = 0
KGU1 141955Z 24007KT 21/11 A301 RMK A01 T02060108  RH  055%=      5-min Rain = 0
KGU1 141956Z 23007KT 21/11 A301 RMK A01 T02080106  RH  054%=      5-min Rain = 0
KGU1 141957Z 24010KT 21/11 A301 RMK A01 T02090105  RH  053%=      5-min Rain = 0
KGU1 141958Z 24009KT 21/11 A301 RMK A01 T02090107  RH  054%=      5-min Rain = 0
KGU1 141959Z 26011G20KT 21/11 A301 RMK A01 T02090106  RH  053%=      5-min Rain = 0
KGU1 142000Z 27009KT 21/11 A301 RMK A01 T02070106  RH  054%=      5-min Rain = 0
KGU1 142001Z 26010KT 21/11 A301 RMK A01 T02080107  RH  054%=      5-min Rain = 0
KGU1 142002Z 25008KT 21/11 A301 RMK A01 T02080106  RH  054%=      5-min Rain = 0
KGU1 142003Z 23005KT 21/11 A301 RMK A01 T02070107  RH  055%=      5-min Rain = 0
KGU1 142004Z 23009KT 21/11 A301 RMK A01 T02100109  RH  054%=      5-min Rain = 0
KGU1 142005Z 24011G16KT 21/11 A301 RMK A01 T02100109  RH  054%=      5-min Rain = 0
KGU1 142006Z 26008KT 21/11 A301 RMK A01 T02090109  RH  055%=      5-min Rain = 0
KGU1 142007Z 24010KT 21/11 A301 RMK A01 T02100111  RH  055%=      5-min Rain = 0
KGU1 142008Z 24007KT 21/11 A301 RMK A01 T02080109  RH  055%=      5-min Rain = 0
KGU1 142009Z 22008KT 21/11 A301 RMK A01 T02060111  RH  056%=      5-min Rain = 0
KGU1 142010Z 23006KT 21/11 A301 RMK A01 T02090112  RH  056%=      5-min Rain = 0
KGU1 142011Z 24008KT 21/11 A301 RMK A01 T02120113  RH  055%=      5-min Rain = 0
KGU1 142012Z 24011G16KT 21/11 A301 RMK A01 T02140111  RH  054%=      5-min Rain = 0
KGU1 142013Z 25013G18KT 21/11 A3009 RMK A01 T02090107  RH  054%=      5-min Rain = 0
KGU1 142014Z 25009KT 21/11 A301 RMK A01 T02050108  RH  056%=      5-min Rain = 0
KGU1 142015Z 27009KT 21/11 A301 RMK A01 T02060112  RH  057%=      5-min Rain = 0
KGU1 142016Z 27009KT 21/11 A301 RMK A01 T02090113  RH  056%=      5-min Rain = 0
KGU1 142017Z 26013G18KT 21/11 A3009 RMK A01 T02110110  RH  054%=      5-min Rain = 0
KGU1 142018Z 25012KT 21/11 A3009 RMK A01 T02090109  RH  055%=      5-min Rain = 0
KGU1 142019Z 25009KT 21/11 A3009 RMK A01 T02070110  RH  056%=      5-min Rain = 0
KGU1 142020Z 26010KT 20/11 A3009 RMK A01 T02040107  RH  055%=      5-min Rain = 0
KGU1 142021Z 28011KT 20/11 A3009 RMK A01 T02030108  RH  056%=      5-min Rain = 0
KGU1 142022Z 26010KT 20/11 A3009 RMK A01 T02010113  RH  059%=      5-min Rain = 0
KGU1 142023Z 23011KT 20/12 A3009 RMK A01 T02030116  RH  060%=      5-min Rain = 0
KGU1 142024Z 22010G15KT 20/12 A3009 RMK A01 T02040118  RH  060%=      5-min Rain = 0
KGU1 142025Z 22009KT 21/12 A3009 RMK A01 T02060118  RH  059%=      5-min Rain = 0
KGU1 142026Z 24008KT 21/12 A3009 RMK A01 T02050117  RH  059%=      5-min Rain = 0
KGU1 142027Z 24007KT 21/12 A3009 RMK A01 T02050117  RH  059%=      5-min Rain = 0
KGU1 142028Z 25006G11KT 21/12 A3009 RMK A01 T02100119  RH  058%=      5-min Rain = 0
KGU1 142029Z 26007KT 21/11 A3009 RMK A01 T02120108  RH  053%=      5-min Rain = 0
KGU1 142030Z 25007KT 21/11 A3009 RMK A01 T02090108  RH  054%=      5-min Rain = 0
KGU1 142031Z 24009KT 21/11 A3009 RMK A01 T02070105  RH  054%=      5-min Rain = 0
KGU1 142032Z 25010KT 20/10 A3009 RMK A01 T02020103  RH  055%=      5-min Rain = 0
KGU1 142033Z 26009KT 20/10 A3009 RMK A01 T02000100  RH  054%=      5-min Rain = 0
KGU1 142034Z 27008KT 20/10 A3009 RMK A01 T01990101  RH  055%=      5-min Rain = 0
KGU1 142035Z 26006KT 20/10 A3009 RMK A01 T01980102  RH  055%=      5-min Rain = 0
KGU1 142036Z 24006KT 20/10 A3009 RMK A01 T01990102  RH  055%=      5-min Rain = 0
KGU1 142037Z 25011KT 20/10 A3009 RMK A01 T01980102  RH  056%=      5-min Rain = 0
KGU1 142038Z 25011KT 20/10 A3009 RMK A01 T01960102  RH  056%=      5-min Rain = 0
KGU1 142039Z 24010KT 19/10 A3009 RMK A01 T01940102  RH  057%=      5-min Rain = 0
KGU1 142040Z 24010KT 19/10 A3009 RMK A01 T01920104  RH  059%=      5-min Rain = 0
KGU1 142041Z 25009KT 19/11 A3009 RMK A01 T01910110  RH  061%=      5-min Rain = 0
KGU1 142042Z 25010KT 19/11 A3009 RMK A01 T01900111  RH  062%=      5-min Rain = 0
KGU1 142043Z 25010KT 19/11 A301 RMK A01 T01890108  RH  061%=      5-min Rain = 0
KGU1 142044Z 24007KT 19/11 A301 RMK A01 T01870107  RH  062%=      5-min Rain = 0
KGU1 142045Z 25010G15KT 19/11 A301 RMK A01 T01870108  RH  062%=      5-min Rain = 0
KGU1 142046Z 24009KT 19/11 A3009 RMK A01 T01880106  RH  061%=      5-min Rain = 0
KGU1 142047Z 24008KT 19/11 A3009 RMK A01 T01900108  RH  061%=      5-min Rain = 0
KGU1 142048Z 23007KT 19/11 A3009 RMK A01 T01920109  RH  061%=      5-min Rain = 0
KGU1 142049Z 24008KT 19/11 A301 RMK A01 T01920110  RH  061%=      5-min Rain = 0
KGU1 142050Z 23010KT 19/11 A3009 RMK A01 T01920107  RH  060%=      5-min Rain = 0
KGU1 142051Z 24012KT 19/11 A301 RMK A01 T01910107  RH  060%=      5-min Rain = 0
KGU1 142052Z 24009KT 19/11 A301 RMK A01 T01890109  RH  062%=      5-min Rain = 0
KGU1 142053Z 22008G13KT 19/11 A3009 RMK A01 T01890112  RH  063%=      5-min Rain = 0
KGU1 142054Z 24013KT 19/11 A3009 RMK A01 T01890111  RH  063%=      5-min Rain = 0
KGU1 142055Z 23009KT 19/11 A301 RMK A01 T01880111  RH  063%=      5-min Rain = 0
KGU1 142056Z 22009KT 19/11 A301 RMK A01 T01870114  RH  065%=      5-min Rain = 0
KGU1 142057Z 24011KT 19/11 A301 RMK A01 T01860113  RH  065%=      5-min Rain = 0
KGU1 142058Z 23009KT 19/12 A301 RMK A01 T01860116  RH  066%=      5-min Rain = 0
KGU1 142059Z 24008KT 19/12 A301 RMK A01 T01850121  RH  069%=      5-min Rain = 0
KGU1 142100Z 24009G14KT 18/12 A301 RMK A01 T01830124  RH  071%=      5-min Rain = 0
KGU1 142101Z 23011G16KT 18/13 A301 RMK A01 T01820126  RH  073%=      5-min Rain = 0
KGU1 142102Z 26010KT 18/13 A301 RMK A01 T01790130  RH  076%=      5-min Rain = 0
KGU1 142103Z 25011KT 18/13 A301 RMK A01 T01760131  RH  078%=      5-min Rain = 0
KGU1 142104Z 26012KT 17/13 A301 RMK A01 T01740129  RH  078%=      5-min Rain = 0
KGU1 142105Z 27007KT 17/13 A301 RMK A01 T01730128  RH  078%=      5-min Rain = 0
KGU1 142106Z 25007KT 17/13 A301 RMK A01 T01740132  RH  079%=      5-min Rain = 0
KGU1 142107Z 24006KT 18/13 A301 RMK A01 T01750133  RH  079%=      5-min Rain = 0
KGU1 142108Z 24010G15KT 18/13 A3009 RMK A01 T01770132  RH  078%=      5-min Rain = 0
KGU1 142109Z 26011KT 18/13 A3009 RMK A01 T01770128  RH  076%=      5-min Rain = 0
KGU1 142110Z 26010KT 18/13 A3009 RMK A01 T01780128  RH  075%=      5-min Rain = 0
KGU1 142111Z 24012KT 18/13 A3009 RMK A01 T01790128  RH  075%=      5-min Rain = 0
KGU1 142112Z 24010KT 18/13 A3009 RMK A01 T01790126  RH  074%=      5-min Rain = 0
KGU1 142113Z 24009KT 18/13 A3009 RMK A01 T01810127  RH  074%=      5-min Rain = 0
KGU1 142114Z 24010KT 18/13 A3009 RMK A01 T01830125  RH  072%=      5-min Rain = 0
KGU1 142115Z 25008KT 18/12 A3009 RMK A01 T01830122  RH  070%=      5-min Rain = 0
KGU1 142116Z 24008KT 18/12 A3009 RMK A01 T01830123  RH  070%=      5-min Rain = 0
KGU1 142117Z 25009KT 19/13 A3009 RMK A01 T01850125  RH  071%=      5-min Rain = 0
KGU1 142118Z 24011KT 19/13 A3009 RMK A01 T01860127  RH  071%=      5-min Rain = 0
KGU1 142119Z 25011KT 19/12 A3009 RMK A01 T01860124  RH  070%=      5-min Rain = 0
KGU1 142120Z 24010KT 19/12 A3009 RMK A01 T01870124  RH  070%=      5-min Rain = 0
KGU1 142121Z 24012KT 19/13 A3009 RMK A01 T01870125  RH  070%=      5-min Rain = 0
KGU1 142122Z 24009KT 19/13 A3009 RMK A01 T01860125  RH  070%=      5-min Rain = 0
KGU1 142123Z 24011KT 19/13 A3009 RMK A01 T01850126  RH  071%=      5-min Rain = 0
KGU1 142124Z 24008KT 18/13 A3009 RMK A01 T01840126  RH  071%=      5-min Rain = 0
KGU1 142125Z 23009KT 19/13 A3009 RMK A01 T01850126  RH  071%=      5-min Rain = 0
KGU1 142126Z 23007KT 19/13 A3009 RMK A01 T01870126  RH  070%=      5-min Rain = 0
KGU1 142127Z 24013G19KT 19/12 A3009 RMK A01 T01890124  RH  068%=      5-min Rain = 0
KGU1 142128Z 23011G16KT 19/12 A3009 RMK A01 T01880120  RH  067%=      5-min Rain = 0
KGU1 142129Z 24010KT 19/12 A3009 RMK A01 T01870120  RH  068%=      5-min Rain = 0
KGU1 142130Z 25014KT 19/12 A3009 RMK A01 T01860122  RH  069%=      5-min Rain = 0
KGU1 142131Z 24013KT 19/12 A3009 RMK A01 T01850122  RH  069%=      5-min Rain = 0
KGU1 142132Z 26013KT 19/12 A3009 RMK A01 T01850118  RH  067%=      5-min Rain = 0
KGU1 142133Z 26011KT 19/12 A3009 RMK A01 T01860117  RH  066%=      5-min Rain = 0
KGU1 142134Z 26010KT 19/12 A3009 RMK A01 T01870118  RH  066%=      5-min Rain = 0
KGU1 142135Z 25010KT 19/12 A3009 RMK A01 T01880117  RH  066%=      5-min Rain = 0
KGU1 142136Z 24012KT 19/12 A3009 RMK A01 T01880119  RH  066%=      5-min Rain = 0
KGU1 142137Z 26015G20KT 19/12 A3009 RMK A01 T01910120  RH  066%=      5-min Rain = 0
KGU1 142138Z 25013KT 19/12 A3009 RMK A01 T01910120  RH  066%=      5-min Rain = 0
KGU1 142139Z 24010KT 19/12 A3009 RMK A01 T01930119  RH  065%=      5-min Rain = 0
KGU1 142140Z 25010G15KT 20/12 A3009 RMK A01 T01950118  RH  063%=      5-min Rain = 0
KGU1 142141Z 25011KT 20/12 A3009 RMK A01 T01960119  RH  063%=      5-min Rain = 0
KGU1 142142Z 24011KT 20/12 A3009 RMK A01 T01950118  RH  063%=      5-min Rain = 0
KGU1 142143Z 25010KT 19/12 A3009 RMK A01 T01940118  RH  064%=      5-min Rain = 0
KGU1 142144Z 24011KT 19/12 A3009 RMK A01 T01930118  RH  064%=      5-min Rain = 0
KGU1 142145Z 25011KT 19/12 A3009 RMK A01 T01920118  RH  065%=      5-min Rain = 0
KGU1 142146Z 25011KT 19/12 A3009 RMK A01 T01910118  RH  065%=      5-min Rain = 0
KGU1 142147Z 25007KT 19/12 A3009 RMK A01 T01920120  RH  065%=      5-min Rain = 0
KGU1 142148Z 25008KT 20/12 A3009 RMK A01 T01960121  RH  064%=      5-min Rain = 0
KGU1 142149Z 23008KT 20/12 A3009 RMK A01 T01980121  RH  064%=      5-min Rain = 0
KGU1 142150Z 23011KT 20/12 A3009 RMK A01 T01980123  RH  064%=      5-min Rain = 0
KGU1 142151Z 26014KT 20/12 A3009 RMK A01 T01980122  RH  064%=      5-min Rain = 0
KGU1 142152Z 27014KT 20/12 A3009 RMK A01 T01970119  RH  063%=      5-min Rain = 0
KGU1 142153Z 26010KT 20/12 A3009 RMK A01 T01970118  RH  063%=      5-min Rain = 0
KGU1 142154Z 25011G17KT 20/12 A3009 RMK A01 T01970120  RH  064%=      5-min Rain = 0
KGU1 142155Z 26011KT 20/12 A3008 RMK A01 T01960119  RH  063%=      5-min Rain = 0
KGU1 142156Z 25013KT 20/12 A3008 RMK A01 T01950120  RH  064%=      5-min Rain = 0
KGU1 142157Z 24013KT 20/12 A3008 RMK A01 T01960121  RH  065%=      5-min Rain = 0
KGU1 142158Z 25015KT 20/12 A3008 RMK A01 T01960122  RH  065%=      5-min Rain = 0
KGU1 142159Z 25015KT 20/12 A3008 RMK A01 T01960121  RH  064%=      5-min Rain = 0
KGU1 142200Z 26014KT 20/12 A3008 RMK A01 T01990119  RH  062%=      5-min Rain = 0
KGU1 142201Z 24009KT 20/12 A3008 RMK A01 T02000119  RH  062%=      5-min Rain = 0
KGU1 142202Z 24014G20KT 20/12 A3008 RMK A01 T02020121  RH  062%=      5-min Rain = 0
KGU1 142203Z 25015KT 20/12 A3008 RMK A01 T02020119  RH  061%=      5-min Rain = 0
KGU1 142204Z 27014KT 20/12 A3008 RMK A01 T02010117  RH  061%=      5-min Rain = 0
KGU1 142205Z 26013G18KT 20/12 A3008 RMK A01 T02020118  RH  061%=      5-min Rain = 0
KGU1 142206Z 24017G22KT 20/12 A3008 RMK A01 T02030118  RH  060%=      5-min Rain = 0
KGU1 142207Z 27015KT 20/12 A3008 RMK A01 T02000116  RH  061%=      5-min Rain = 0
KGU1 142208Z 26015KT 20/12 A3008 RMK A01 T01990118  RH  061%=      5-min Rain = 0
KGU1 142209Z 25011KT 20/12 A3008 RMK A01 T01990118  RH  062%=      5-min Rain = 0
KGU1 142210Z 24008KT 20/12 A3008 RMK A01 T02000120  RH  062%=      5-min Rain = 0
KGU1 142211Z 24013G20KT 20/12 A3008 RMK A01 T01990119  RH  062%=      5-min Rain = 0
KGU1 142212Z 25013G19KT 20/12 A3008 RMK A01 T01970118  RH  062%=      5-min Rain = 0
KGU1 142213Z 25018G32KT 20/12 A3007 RMK A01 T01980118  RH  062%=      5-min Rain = 0
KGU1 142214Z 27015KT 20/12 A3008 RMK A01 T01990117  RH  061%=      5-min Rain = 0
KGU1 142215Z 26011G16KT 20/12 A3007 RMK A01 T02000117  RH  061%=      5-min Rain = 0
KGU1 142216Z 24013KT 20/12 A3007 RMK A01 T02000119  RH  061%=      5-min Rain = 0
KGU1 142217Z 24015G21KT 20/12 A3007 RMK A01 T02000118  RH  061%=      5-min Rain = 0
KGU1 142218Z 25015G23KT 20/12 A3007 RMK A01 T01990117  RH  062%=      5-min Rain = 0
KGU1 142219Z 24011KT 20/12 A3007 RMK A01 T01980118  RH  062%=      5-min Rain = 0
KGU1 142220Z 25018KT 20/12 A3007 RMK A01 T01990117  RH  061%=      5-min Rain = 0
KGU1 142221Z 26016G22KT 20/12 A3007 RMK A01 T01990115  RH  060%=      5-min Rain = 0
KGU1 142222Z 26018KT 20/12 A3007 RMK A01 T01980116  RH  061%=      5-min Rain = 0
KGU1 142223Z 26016KT 20/12 A3007 RMK A01 T01980116  RH  061%=      5-min Rain = 0
KGU1 142224Z 26016KT 20/12 A3007 RMK A01 T01980116  RH  061%=      5-min Rain = 0
KGU1 142225Z 24014G21KT 20/12 A3007 RMK A01 T01980117  RH  062%=      5-min Rain = 0
KGU1 142226Z 24015KT 20/12 A3007 RMK A01 T01970116  RH  062%=      5-min Rain = 0
KGU1 142227Z 25016G22KT 20/12 A3007 RMK A01 T01970117  RH  062%=      5-min Rain = 0
KGU1 142228Z 25011KT 20/12 A3007 RMK A01 T01960116  RH  062%=      5-min Rain = 0
KGU1 142229Z 25012KT 20/12 A3007 RMK A01 T01970117  RH  062%=      5-min Rain = 0
KGU1 142230Z 25012KT 20/12 A3007 RMK A01 T01970117  RH  062%=      5-min Rain = 0
KGU1 142231Z 25016KT 19/12 A3007 RMK A01 T01940116  RH  063%=      5-min Rain = 0
KGU1 142232Z 24017KT 19/12 A3007 RMK A01 T01930117  RH  063%=      5-min Rain = 0
KGU1 142233Z 25017G26KT 19/12 A3007 RMK A01 T01940117  RH  063%=      5-min Rain = 0
KGU1 142234Z 26011KT 19/12 A3007 RMK A01 T01940116  RH  063%=      5-min Rain = 0
KGU1 142235Z 26014KT 20/12 A3007 RMK A01 T01950116  RH  063%=      5-min Rain = 0
KGU1 142236Z 25010G15KT 19/12 A3007 RMK A01 T01940117  RH  063%=      5-min Rain = 0
KGU1 142237Z 23011G17KT 19/12 A3007 RMK A01 T01930116  RH  063%=      5-min Rain = 0
KGU1 142238Z 23017G22KT 19/12 A3007 RMK A01 T01920116  RH  063%=      5-min Rain = 0
KGU1 142239Z 26015G20KT 19/12 A3007 RMK A01 T01930116  RH  063%=      5-min Rain = 0
KGU1 142240Z 26013KT 19/12 A3007 RMK A01 T01930117  RH  064%=      5-min Rain = 0
KGU1 142241Z 24012KT 19/12 A3007 RMK A01 T01930117  RH  063%=      5-min Rain = 0
KGU1 142242Z 24014KT 19/12 A3007 RMK A01 T01930116  RH  063%=      5-min Rain = 0
KGU1 142243Z 23010G18KT 20/12 A3007 RMK A01 T01950117  RH  063%=      5-min Rain = 0
KGU1 142244Z 25017G25KT 20/12 A3007 RMK A01 T01960115  RH  062%=      5-min Rain = 0
KGU1 142245Z 25011KT 20/12 A3007 RMK A01 T01960116  RH  062%=      5-min Rain = 0
KGU1 142246Z 25015KT 20/12 A3007 RMK A01 T01960115  RH  062%=      5-min Rain = 0
KGU1 142247Z 24014KT 20/12 A3007 RMK A01 T01960116  RH  062%=      5-min Rain = 0
KGU1 142248Z 23013KT 20/12 A3007 RMK A01 T01950116  RH  062%=      5-min Rain = 0
KGU1 142249Z 24017KT 20/12 A3007 RMK A01 T01950116  RH  063%=      5-min Rain = 0
KGU1 142250Z 24017KT 19/12 A3007 RMK A01 T01940115  RH  063%=      5-min Rain = 0
KGU1 142251Z 24013KT 19/12 A3007 RMK A01 T01920116  RH  063%=      5-min Rain = 0
KGU1 142252Z 23015G21KT 19/12 A3007 RMK A01 T01910117  RH  064%=      5-min Rain = 0
KGU1 142253Z 24017G22KT 19/12 A3007 RMK A01 T01900117  RH  065%=      5-min Rain = 0
KGU1 142254Z 24015KT 19/12 A3007 RMK A01 T01900116  RH  064%=      5-min Rain = 0
KGU1 142255Z 24016KT 19/12 A3007 RMK A01 T01900116  RH  065%=      5-min Rain = 0
KGU1 142256Z 23017G26KT 19/12 A3007 RMK A01 T01890117  RH  065%=      5-min Rain = 0
KGU1 142257Z 24016KT 19/12 A3007 RMK A01 T01890116  RH  065%=      5-min Rain = 0
KGU1 142258Z 26015KT 19/12 A3007 RMK A01 T01890117  RH  065%=      5-min Rain = 0
KGU1 142259Z 25013KT 19/12 A3007 RMK A01 T01890118  RH  066%=      5-min Rain = 0
KGU1 142300Z 24014KT 19/12 A3007 RMK A01 T01890116  RH  065%=      5-min Rain = 0
KGU1 142301Z 24014G21KT 19/12 A3007 RMK A01 T01890116  RH  065%=      5-min Rain = 0
KGU1 142302Z 24019G24KT 19/12 A3007 RMK A01 T01900115  RH  064%=      5-min Rain = 0
KGU1 142303Z 25016G22KT 19/11 A3007 RMK A01 T01900114  RH  064%=      5-min Rain = 0
KGU1 142304Z 25017KT 19/12 A3007 RMK A01 T01900115  RH  064%=      5-min Rain = 0
KGU1 142305Z 26015KT 19/12 A3007 RMK A01 T01900116  RH  065%=      5-min Rain = 0
KGU1 142306Z 25012KT 19/12 A3008 RMK A01 T01900117  RH  065%=      5-min Rain = 0
KGU1 142307Z 24015KT 19/12 A3008 RMK A01 T01890118  RH  066%=      5-min Rain = 0
KGU1 142308Z 23010KT 19/12 A3008 RMK A01 T01890119  RH  066%=      5-min Rain = 0
KGU1 142309Z 25017G23KT 19/12 A3008 RMK A01 T01890118  RH  066%=      5-min Rain = 0
KGU1 142310Z 25013G18KT 19/12 A3008 RMK A01 T01890118  RH  066%=      5-min Rain = 0
KGU1 142311Z 24014KT 19/12 A3008 RMK A01 T01890119  RH  066%=      5-min Rain = 0
KGU1 142312Z 24011G17KT 19/12 A3008 RMK A01 T01890119  RH  066%=      5-min Rain = 0
KGU1 142313Z 24015KT 19/12 A3008 RMK A01 T01890119  RH  066%=      5-min Rain = 0
KGU1 142314Z 24015KT 19/12 A3007 RMK A01 T01890118  RH  066%=      5-min Rain = 0
KGU1 142315Z 24015G20KT 19/12 A3007 RMK A01 T01890119  RH  066%=      5-min Rain = 0
KGU1 142316Z 24016G23KT 19/12 A3007 RMK A01 T01890119  RH  066%=      5-min Rain = 0
KGU1 142317Z 24016KT 19/12 A3007 RMK A01 T01890117  RH  065%=      5-min Rain = 0
KGU1 142318Z 25010KT 19/12 A3008 RMK A01 T01900117  RH  065%=      5-min Rain = 0
KGU1 142319Z 23010KT 19/12 A3007 RMK A01 T01900118  RH  065%=      5-min Rain = 0
KGU1 142320Z 22014G20KT 19/12 A3007 RMK A01 T01900118  RH  065%=      5-min Rain = 0
KGU1 142321Z 22019KT 19/12 A3007 RMK A01 T01900117  RH  065%=      5-min Rain = 0
KGU1 142322Z 24015G21KT 19/12 A3007 RMK A01 T01900117  RH  065%=      5-min Rain = 0
KGU1 142323Z 23012KT 19/12 A3007 RMK A01 T01900117  RH  065%=      5-min Rain = 0
KGU1 142324Z 23010KT 19/12 A3007 RMK A01 T01900118  RH  065%=      5-min Rain = 0
KGU1 142325Z 23015G22KT 19/12 A3007 RMK A01 T01890118  RH  066%=      5-min Rain = 0
KGU1 142326Z 24013KT 19/12 A3007 RMK A01 T01890118  RH  066%=      5-min Rain = 0
KGU1 142327Z 24012G18KT 19/12 A3008 RMK A01 T01900119  RH  066%=      5-min Rain = 0
KGU1 142328Z 26013G18KT 19/12 A3008 RMK A01 T01900117  RH  065%=      5-min Rain = 0
KGU1 142329Z 24012G17KT 19/12 A3008 RMK A01 T01910116  RH  064%=      5-min Rain = 0
KGU1 142330Z 24018G23KT 19/12 A3008 RMK A01 T01910118  RH  065%=      5-min Rain = 0
KGU1 142331Z 26019KT 19/12 A3008 RMK A01 T01910116  RH  064%=      5-min Rain = 0
KGU1 142332Z 25017KT 19/12 A3008 RMK A01 T01910116  RH  064%=      5-min Rain = 0
KGU1 142333Z 24012G19KT 19/12 A3007 RMK A01 T01910118  RH  065%=      5-min Rain = 0
KGU1 142334Z 23015G21KT 19/12 A3008 RMK A01 T01900118  RH  065%=      5-min Rain = 0
KGU1 142335Z 23014G20KT 19/12 A3008 RMK A01 T01900117  RH  065%=      5-min Rain = 0
KGU1 142336Z 22021G29KT 19/12 A3007 RMK A01 T01900117  RH  065%=      5-min Rain = 0
KGU1 142337Z 25014KT 19/12 A3008 RMK A01 T01910116  RH  064%=      5-min Rain = 0
KGU1 142338Z 24012KT 19/12 A3008 RMK A01 T01910118  RH  065%=      5-min Rain = 0
KGU1 142339Z 24013G18KT 19/12 A3008 RMK A01 T01900117  RH  065%=      5-min Rain = 0
KGU1 142340Z 24014KT 19/12 A3008 RMK A01 T01900117  RH  065%=      5-min Rain = 0
KGU1 142341Z 24015G24KT 19/12 A3008 RMK A01 T01900117  RH  065%=      5-min Rain = 0
KGU1 142342Z 25013G18KT 19/12 A3008 RMK A01 T01910116  RH  064%=      5-min Rain = 0
KGU1 142343Z 23014KT 19/12 A3008 RMK A01 T01910117  RH  064%=      5-min Rain = 0
KGU1 142344Z 24017G22KT 19/12 A3008 RMK A01 T01900117  RH  065%=      5-min Rain = 0
KGU1 142345Z 24015G22KT 19/12 A3008 RMK A01 T01900117  RH  065%=      5-min Rain = 0
KGU1 142346Z 24016KT 19/12 A3008 RMK A01 T01900116  RH  064%=      5-min Rain = 0
KGU1 142347Z 23014G20KT 19/12 A3008 RMK A01 T01910117  RH  065%=      5-min Rain = 0
KGU1 142348Z 23017G24KT 19/12 A3008 RMK A01 T01910117  RH  065%=      5-min Rain = 0
KGU1 142349Z 25013KT 19/12 A3008 RMK A01 T01910115  RH  064%=      5-min Rain = 0
KGU1 142350Z 23015KT 19/12 A3008 RMK A01 T01910116  RH  064%=      5-min Rain = 0
KGU1 142351Z 24015KT 19/12 A3008 RMK A01 T01910117  RH  064%=      5-min Rain = 0
KGU1 142352Z 24011KT 19/12 A3008 RMK A01 T01910117  RH  065%=      5-min Rain = 0
KGU1 142353Z 24009KT 19/12 A3008 RMK A01 T01900117  RH  065%=      5-min Rain = 0
KGU1 142354Z 23010G15KT 19/12 A3008 RMK A01 T01900117  RH  065%=      5-min Rain = 0
KGU1 142355Z 23015G21KT 19/12 A3008 RMK A01 T01890116  RH  065%=      5-min Rain = 0
KGU1 142356Z 23012G20KT 19/12 A3008 RMK A01 T01900116  RH  064%=      5-min Rain = 0
KGU1 142357Z 24014G19KT 19/12 A3008 RMK A01 T01900116  RH  065%=      5-min Rain = 0
KGU1 142358Z 25017G22KT 19/12 A3008 RMK A01 T01900116  RH  064%=      5-min Rain = 0
KGU1 142359Z 24012KT 19/12 A3008 RMK A01 T01900116  RH  064%=      5-min Rain = 0
KGU1 150000Z 24013G19KT 19/12 A3008 RMK A01 T01900117  RH  065%=      5-min Rain = 0
KGU1 150001Z 24014G19KT 19/12 A3008 RMK A01 T01890117  RH  065%=      5-min Rain = 0
KGU1 150002Z 23014KT 19/12 A3008 RMK A01 T01890117  RH  065%=      5-min Rain = 0
KGU1 150003Z 23014G21KT 19/12 A3008 RMK A01 T01890117  RH  065%=      5-min Rain = 0
KGU1 150004Z 24016KT 19/12 A3008 RMK A01 T01890116  RH  065%=      5-min Rain = 0
KGU1 150005Z 24013KT 19/12 A3008 RMK A01 T01900117  RH  065%=      5-min Rain = 0
KGU1 150006Z 24015G20KT 19/12 A3008 RMK A01 T01890117  RH  065%=      5-min Rain = 0
KGU1 150007Z 24014G19KT 19/12 A3008 RMK A01 T01890117  RH  065%=      5-min Rain = 0
KGU1 150008Z 25017G22KT 19/12 A3008 RMK A01 T01890117  RH  065%=      5-min Rain = 0
KGU1 150009Z 24017KT 19/12 A3007 RMK A01 T01890117  RH  065%=      5-min Rain = 0
KGU1 150010Z 23013G18KT 19/12 A3008 RMK A01 T01890117  RH  065%=      5-min Rain = 0
KGU1 150011Z 23014G19KT 19/12 A3008 RMK A01 T01890117  RH  065%=      5-min Rain = 0
KGU1 150012Z 24013G20KT 19/11 A3008 RMK A01 T01890114  RH  064%=      5-min Rain = 0
KGU1 150013Z 24013G18KT 19/12 A3008 RMK A01 T01900116  RH  064%=      5-min Rain = 0
KGU1 150014Z 24018KT 19/12 A3007 RMK A01 T01890117  RH  065%=      5-min Rain = 0
KGU1 150015Z 25015KT 19/12 A3008 RMK A01 T01890116  RH  065%=      5-min Rain = 0
KGU1 150016Z 25015KT 19/12 A3008 RMK A01 T01890116  RH  065%=      5-min Rain = 0
KGU1 150017Z 24015KT 19/12 A3008 RMK A01 T01890117  RH  065%=      5-min Rain = 0
KGU1 150018Z 23012KT 19/12 A3008 RMK A01 T01890117  RH  065%=      5-min Rain = 0
KGU1 150019Z 24016KT 19/12 A3008 RMK A01 T01880117  RH  066%=      5-min Rain = 0
KGU1 150020Z 24017KT 19/12 A3008 RMK A01 T01880116  RH  065%=      5-min Rain = 0
KGU1 150021Z 24016KT 19/12 A3008 RMK A01 T01890116  RH  065%=      5-min Rain = 0
KGU1 150022Z 24018G24KT 19/12 A3008 RMK A01 T01890116  RH  065%=      5-min Rain = 0
KGU1 150023Z 25017G22KT 19/12 A3008 RMK A01 T01890115  RH  064%=      5-min Rain = 0
KGU1 150024Z 24016KT 19/12 A3008 RMK A01 T01900116  RH  065%=      5-min Rain = 0
KGU1 150025Z 25016KT 19/12 A3008 RMK A01 T01890117  RH  065%=      5-min Rain = 0
KGU1 150026Z 24014KT 19/12 A3008 RMK A01 T01890117  RH  065%=      5-min Rain = 0
KGU1 150027Z 23014G23KT 19/12 A3008 RMK A01 T01890118  RH  066%=      5-min Rain = 0
KGU1 150028Z 23015KT 19/12 A3008 RMK A01 T01890118  RH  066%=      5-min Rain = 0
KGU1 150029Z 25016G21KT 19/12 A3008 RMK A01 T01890118  RH  066%=      5-min Rain = 0
KGU1 150030Z 25013KT 19/12 A3008 RMK A01 T01890117  RH  065%=      5-min Rain = 0
KGU1 150031Z 25014KT 19/12 A3008 RMK A01 T01890118  RH  065%=      5-min Rain = 0
KGU1 150032Z 25015G20KT 19/12 A3008 RMK A01 T01890118  RH  066%=      5-min Rain = 0
KGU1 150033Z 24013G21KT 19/12 A3008 RMK A01 T01880118  RH  066%=      5-min Rain = 0
KGU1 150034Z 24016G24KT 19/12 A3008 RMK A01 T01880118  RH  066%=      5-min Rain = 0
KGU1 150035Z 25015G21KT 19/12 A3008 RMK A01 T01880118  RH  066%=      5-min Rain = 0
KGU1 150036Z 23016KT 19/12 A3008 RMK A01 T01880118  RH  066%=      5-min Rain = 0
KGU1 150037Z 24013KT 19/12 A3008 RMK A01 T01880118  RH  066%=      5-min Rain = 0
KGU1 150038Z 23015KT 19/12 A3008 RMK A01 T01880118  RH  066%=      5-min Rain = 0
KGU1 150039Z 22014KT 19/12 A3008 RMK A01 T01870118  RH  066%=      5-min Rain = 0
KGU1 150040Z 24014G20KT 19/12 A3008 RMK A01 T01870118  RH  066%=      5-min Rain = 0
KGU1 150041Z 26016G21KT 19/12 A3008 RMK A01 T01870118  RH  066%=      5-min Rain = 0
KGU1 150042Z 25016G21KT 19/12 A3008 RMK A01 T01870118  RH  066%=      5-min Rain = 0
KGU1 150043Z 24015G22KT 19/12 A3008 RMK A01 T01880118  RH  066%=      5-min Rain = 0
KGU1 150044Z 24014KT 19/12 A3008 RMK A01 T01870118  RH  066%=      5-min Rain = 0
KGU1 150045Z 26015KT 19/12 A3008 RMK A01 T01870118  RH  066%=      5-min Rain = 0
KGU1 150046Z 24013KT 19/12 A3008 RMK A01 T01870118  RH  066%=      5-min Rain = 0
KGU1 150047Z 23016G22KT 19/12 A3008 RMK A01 T01870119  RH  067%=      5-min Rain = 0
KGU1 150048Z 22017G22KT 19/12 A3008 RMK A01 T01870118  RH  067%=      5-min Rain = 0
KGU1 150049Z 24017KT 19/12 A3008 RMK A01 T01880116  RH  065%=      5-min Rain = 0
KGU1 150050Z 24016KT 19/12 A3008 RMK A01 T01890117  RH  066%=      5-min Rain = 0
KGU1 150051Z 25014KT 19/12 A3008 RMK A01 T01890117  RH  065%=      5-min Rain = 0
KGU1 150052Z 26015G21KT 19/12 A3008 RMK A01 T01890118  RH  066%=      5-min Rain = 0
KGU1 150053Z 26017KT 19/12 A3008 RMK A01 T01890118  RH  066%=      5-min Rain = 0
KGU1 150054Z 26016KT 19/12 A3008 RMK A01 T01890118  RH  066%=      5-min Rain = 0
KGU1 150055Z 25017G22KT 19/12 A3008 RMK A01 T01880118  RH  066%=      5-min Rain = 0
KGU1 150056Z 24015KT 19/12 A3008 RMK A01 T01880118  RH  066%=      5-min Rain = 0
KGU1 150057Z 25018G25KT 19/12 A3008 RMK A01 T01880119  RH  066%=      5-min Rain = 0
KGU1 150058Z 25014KT 19/12 A3008 RMK A01 T01890119  RH  066%=      5-min Rain = 0
KGU1 150059Z 24015G20KT 19/12 A3008 RMK A01 T01890119  RH  066%=      5-min Rain = 0
KGU1 150100Z 24018G26KT 19/12 A3008 RMK A01 T01890119  RH  066%=      5-min Rain = 0
KGU1 150101Z 24016KT 19/12 A3009 RMK A01 T01890119  RH  066%=      5-min Rain = 0
KGU1 150102Z 24017KT 19/12 A3009 RMK A01 T01900119  RH  066%=      5-min Rain = 0
KGU1 150103Z 24015KT 19/12 A3009 RMK A01 T01900119  RH  066%=      5-min Rain = 0
KGU1 150104Z 24014G20KT 19/12 A3009 RMK A01 T01900119  RH  066%=      5-min Rain = 0
KGU1 150105Z 23016G22KT 19/12 A3009 RMK A01 T01890118  RH  065%=      5-min Rain = 0
KGU1 150106Z 23015KT 19/12 A3009 RMK A01 T01900118  RH  065%=      5-min Rain = 0
KGU1 150107Z 24015KT 19/12 A3009 RMK A01 T01900119  RH  066%=      5-min Rain = 0
KGU1 150108Z 25018G24KT 19/12 A3009 RMK A01 T01900119  RH  066%=      5-min Rain = 0
KGU1 150109Z 26016G21KT 19/12 A3009 RMK A01 T01900118  RH  065%=      5-min Rain = 0
KGU1 150110Z 25014G21KT 19/12 A3009 RMK A01 T01910118  RH  065%=      5-min Rain = 0
KGU1 150111Z 24017KT 19/12 A3009 RMK A01 T01910118  RH  065%=      5-min Rain = 0
KGU1 150112Z 24015KT 19/12 A3009 RMK A01 T01910118  RH  065%=      5-min Rain = 0
KGU1 150113Z 25014KT 19/12 A3009 RMK A01 T01910118  RH  065%=      5-min Rain = 0
KGU1 150114Z 24013KT 19/12 A3009 RMK A01 T01910118  RH  065%=      5-min Rain = 0
KGU1 150115Z 24013G21KT 19/12 A3009 RMK A01 T01910117  RH  065%=      5-min Rain = 0
KGU1 150116Z 24012KT 19/12 A3009 RMK A01 T01910116  RH  064%=      5-min Rain = 0
KGU1 150117Z 22011G16KT 19/12 A3009 RMK A01 T01910118  RH  065%=      5-min Rain = 0
KGU1 150118Z 22013G21KT 19/12 A3009 RMK A01 T01900119  RH  066%=      5-min Rain = 0
KGU1 150119Z 23013G18KT 19/12 A3009 RMK A01 T01890119  RH  066%=      5-min Rain = 0
KGU1 150120Z 24016KT 19/12 A3009 RMK A01 T01890118  RH  066%=      5-min Rain = 0
KGU1 150121Z 25013G18KT 19/12 A3009 RMK A01 T01890118  RH  066%=      5-min Rain = 0
KGU1 150122Z 25011KT 19/12 A3009 RMK A01 T01890118  RH  066%=      5-min Rain = 0
KGU1 150123Z 23013KT 19/12 A3009 RMK A01 T01890118  RH  066%=      5-min Rain = 0
KGU1 150124Z 24017G23KT 19/12 A3009 RMK A01 T01890119  RH  066%=      5-min Rain = 0
KGU1 150125Z 25016KT 19/12 A3009 RMK A01 T01890118  RH  066%=      5-min Rain = 0
KGU1 150126Z 25013KT 19/12 A3009 RMK A01 T01890118  RH  066%=      5-min Rain = 0
KGU1 150127Z 24010KT 19/12 A3009 RMK A01 T01890119  RH  066%=      5-min Rain = 0
KGU1 150128Z 23010KT 19/12 A3009 RMK A01 T01890119  RH  066%=      5-min Rain = 0
KGU1 150129Z 24020G26KT 19/12 A3009 RMK A01 T01890119  RH  066%=      5-min Rain = 0
KGU1 150130Z 25015G23KT 19/12 A3009 RMK A01 T01890118  RH  066%=      5-min Rain = 0
KGU1 150131Z 23013G19KT 19/12 A3009 RMK A01 T01890119  RH  066%=      5-min Rain = 0
KGU1 150132Z 25013KT 19/12 A3009 RMK A01 T01890118  RH  066%=      5-min Rain = 0
KGU1 150133Z 23012G20KT 19/12 A3009 RMK A01 T01890118  RH  066%=      5-min Rain = 0
KGU1 150134Z 24017KT 19/12 A3009 RMK A01 T01890119  RH  066%=      5-min Rain = 0
KGU1 150135Z 25012G17KT 19/12 A3009 RMK A01 T01890117  RH  065%=      5-min Rain = 0
KGU1 150136Z 25010KT 19/12 A3009 RMK A01 T01890117  RH  065%=      5-min Rain = 0
KGU1 150137Z 25009KT 19/12 A3009 RMK A01 T01890118  RH  066%=      5-min Rain = 0
KGU1 150138Z 22012G20KT 19/12 A3009 RMK A01 T01880118  RH  066%=      5-min Rain = 0
KGU1 150139Z 23016G21KT 19/12 A3009 RMK A01 T01890117  RH  065%=      5-min Rain = 0
KGU1 150140Z 25013KT 19/12 A3009 RMK A01 T01890119  RH  066%=      5-min Rain = 0
KGU1 150141Z 24013KT 19/12 A3009 RMK A01 T01880119  RH  067%=      5-min Rain = 0
KGU1 150142Z 23013G22KT 19/12 A3009 RMK A01 T01880120  RH  067%=      5-min Rain = 0
KGU1 150143Z 24015G20KT 19/12 A3009 RMK A01 T01870118  RH  066%=      5-min Rain = 0
KGU1 150144Z 24015G23KT 19/12 A3009 RMK A01 T01870119  RH  067%=      5-min Rain = 0
KGU1 150145Z 24016KT 19/12 A3009 RMK A01 T01880119  RH  067%=      5-min Rain = 0
KGU1 150146Z 25015KT 19/12 A3009 RMK A01 T01880120  RH  067%=      5-min Rain = 0
KGU1 150147Z 23010G15KT 19/12 A3009 RMK A01 T01870120  RH  067%=      5-min Rain = 0
KGU1 150148Z 24017G22KT 19/12 A3009 RMK A01 T01870121  RH  068%=      5-min Rain = 0
KGU1 150149Z 24016KT 19/12 A3009 RMK A01 T01870121  RH  068%=      5-min Rain = 0
KGU1 150150Z 25015KT 19/12 A301 RMK A01 T01870121  RH  068%=      5-min Rain = 0
KGU1 150151Z 24014G19KT 19/12 A3009 RMK A01 T01870122  RH  068%=      5-min Rain = 0
KGU1 150152Z 22013G18KT 19/12 A301 RMK A01 T01870121  RH  068%=      5-min Rain = 0
KGU1 150153Z 24012KT 19/12 A301 RMK A01 T01880119  RH  067%=      5-min Rain = 0
KGU1 150154Z 27012KT 19/12 A301 RMK A01 T01880121  RH  067%=      5-min Rain = 0
KGU1 150155Z 25010KT 19/12 A301 RMK A01 T01880122  RH  068%=      5-min Rain = 0
KGU1 150156Z 23009KT 19/12 A301 RMK A01 T01870121  RH  068%=      5-min Rain = 0
KGU1 150157Z 25011G17KT 19/12 A301 RMK A01 T01870122  RH  068%=      5-min Rain = 0
KGU1 150158Z 23007G12KT 19/12 A301 RMK A01 T01870121  RH  068%=      5-min Rain = 0
KGU1 150159Z 22013G21KT 19/12 A301 RMK A01 T01870122  RH  068%=      5-min Rain = 0
KGU1 150200Z 25011G18KT 19/12 A301 RMK A01 T01870121  RH  068%=      5-min Rain = 0
KGU1 150201Z 26012KT 19/12 A301 RMK A01 T01870120  RH  067%=      5-min Rain = 0
KGU1 150202Z 24011KT 19/12 A301 RMK A01 T01870122  RH  068%=      5-min Rain = 0
KGU1 150203Z 23010KT 19/12 A301 RMK A01 T01870124  RH  069%=      5-min Rain = 0
KGU1 150204Z 23012G20KT 19/12 A301 RMK A01 T01860123  RH  070%=      5-min Rain = 0
KGU1 150205Z 24013KT 19/12 A301 RMK A01 T01860122  RH  069%=      5-min Rain = 0
KGU1 150206Z 24008KT 19/12 A301 RMK A01 T01870122  RH  068%=      5-min Rain = 0
KGU1 150207Z 23011KT 19/12 A301 RMK A01 T01870123  RH  069%=      5-min Rain = 0
KGU1 150208Z 23011KT 19/12 A3011 RMK A01 T01860124  RH  070%=      5-min Rain = 0
KGU1 150209Z 23009KT 19/12 A3011 RMK A01 T01860124  RH  070%=      5-min Rain = 0
KGU1 150210Z 24017KT 19/13 A3011 RMK A01 T01850125  RH  070%=      5-min Rain = 0
KGU1 150211Z 23015G21KT 19/13 A3011 RMK A01 T01850126  RH  071%=      5-min Rain = 0
KGU1 150212Z 22013KT 18/13 A3011 RMK A01 T01840125  RH  071%=      5-min Rain = 0
KGU1 150213Z 23009KT 18/13 A3011 RMK A01 T01830126  RH  072%=      5-min Rain = 0
KGU1 150214Z 23011G18KT 18/13 A3011 RMK A01 T01830126  RH  072%=      5-min Rain = 0
KGU1 150215Z 22013KT 18/13 A3011 RMK A01 T01820126  RH  072%=      5-min Rain = 0
KGU1 150216Z 23011KT 18/13 A3011 RMK A01 T01820125  RH  072%=      5-min Rain = 0
KGU1 150217Z 22015G23KT 18/13 A301 RMK A01 T01820125  RH  072%=      5-min Rain = 0
KGU1 150218Z 23014G24KT 18/13 A3011 RMK A01 T01820125  RH  072%=      5-min Rain = 0
KGU1 150219Z 23008KT 18/12 A3011 RMK A01 T01840122  RH  070%=      5-min Rain = 0
KGU1 150220Z 21010KT 18/13 A3011 RMK A01 T01840125  RH  072%=      5-min Rain = 0
KGU1 150221Z 23013G19KT 18/13 A3011 RMK A01 T01830127  RH  073%=      5-min Rain = 0
KGU1 150222Z 23014KT 18/13 A3011 RMK A01 T01820129  RH  074%=      5-min Rain = 0
KGU1 150223Z 22014KT 18/13 A3011 RMK A01 T01810130  RH  075%=      5-min Rain = 0
KGU1 150224Z 22014KT 18/13 A3011 RMK A01 T01800131  RH  076%=      5-min Rain = 0
KGU1 150225Z 23012KT 18/13 A3011 RMK A01 T01790131  RH  077%=      5-min Rain = 0
KGU1 150226Z 23011KT 18/13 A3011 RMK A01 T01790131  RH  076%=      5-min Rain = 0
KGU1 150227Z 23013G20KT 18/13 A3011 RMK A01 T01790131  RH  076%=      5-min Rain = 0
KGU1 150228Z 23012KT 18/13 A3011 RMK A01 T01790129  RH  076%=      5-min Rain = 0
KGU1 150229Z 23012KT 18/13 A3011 RMK A01 T01790130  RH  076%=      5-min Rain = 0
KGU1 150230Z 23012G19KT 18/13 A3011 RMK A01 T01790131  RH  077%=      5-min Rain = 0
KGU1 150231Z 23015G22KT 18/13 A3011 RMK A01 T01780129  RH  076%=      5-min Rain = 0
KGU1 150232Z 26013G21KT 18/13 A3011 RMK A01 T01800126  RH  073%=      5-min Rain = 0
KGU1 150233Z 23011KT 18/13 A3011 RMK A01 T01820125  RH  072%=      5-min Rain = 0
KGU1 150234Z 24013KT 18/13 A3011 RMK A01 T01820128  RH  074%=      5-min Rain = 0
KGU1 150235Z 24013KT 18/13 A3012 RMK A01 T01810131  RH  076%=      5-min Rain = 0
KGU1 150236Z 25012KT 18/13 A3012 RMK A01 T01790132  RH  077%=      5-min Rain = 0
KGU1 150237Z 24008G13KT 18/13 A3011 RMK A01 T01770133  RH  078%=      5-min Rain = 0
KGU1 150238Z 22009KT 18/13 A3011 RMK A01 T01770133  RH  079%=      5-min Rain = 0
KGU1 150239Z 23015G23KT 18/13 A3011 RMK A01 T01770130  RH  077%=      5-min Rain = 0
KGU1 150240Z 23011G16KT 18/13 A3011 RMK A01 T01790130  RH  076%=      5-min Rain = 0
KGU1 150241Z 23011KT 18/13 A3011 RMK A01 T01770133  RH  078%=      5-min Rain = 0
KGU1 150242Z 25012KT 18/13 A3012 RMK A01 T01770130  RH  077%=      5-min Rain = 0
KGU1 150243Z 23008KT 18/13 A3012 RMK A01 T01790127  RH  074%=      5-min Rain = 0
KGU1 150244Z 22013G19KT 18/13 A3012 RMK A01 T01800132  RH  076%=      5-min Rain = 0
KGU1 150245Z 23011KT 18/14 A3012 RMK A01 T01770137  RH  080%=      5-min Rain = 0
KGU1 150246Z 23012KT 18/14 A3012 RMK A01 T01750138  RH  082%=      5-min Rain = 0
KGU1 150247Z 24012KT 18/14 A3012 RMK A01 T01750138  RH  082%=      5-min Rain = 0
KGU1 150248Z 26010G15KT 18/13 A3012 RMK A01 T01750132  RH  079%=      5-min Rain = 0
KGU1 150249Z 23008KT 18/13 A3012 RMK A01 T01780128  RH  075%=      5-min Rain = 0
KGU1 150250Z 24014KT 18/14 A3012 RMK A01 T01790135  RH  079%=      5-min Rain = 0
KGU1 150251Z 23014G19KT 18/14 A3012 RMK A01 T01760139  RH  082%=      5-min Rain = 0
KGU1 150252Z 21015KT 17/14 A3011 RMK A01 T01740140  RH  084%=      5-min Rain = 0
KGU1 150253Z 24018G26KT 17/13 A3012 RMK A01 T01740132  RH  080%=      5-min Rain = 0
KGU1 150254Z 25015KT 18/13 A3012 RMK A01 T01790128  RH  075%=      5-min Rain = 0
KGU1 150255Z 24015KT 18/14 A3013 RMK A01 T01790136  RH  079%=      5-min Rain = 0
KGU1 150256Z 24014KT 18/14 A3013 RMK A01 T01760139  RH  083%=      5-min Rain = 0
KGU1 150257Z 25013KT 17/14 A3013 RMK A01 T01740141  RH  084%=      5-min Rain = 0
KGU1 150258Z 25013KT 17/14 A3013 RMK A01 T01720141  RH  086%=      5-min Rain = 0
KGU1 150259Z 24013G18KT 17/14 A3013 RMK A01 T01720142  RH  086%=      5-min Rain = 0
KGU1 150300Z 24014KT 17/14 A3013 RMK A01 T01710142  RH  087%=      5-min Rain = 0
KGU1 150301Z 23013G18KT 17/14 A3013 RMK A01 T01710142  RH  087%=      5-min Rain = 0
KGU1 150302Z 23010KT 17/14 A3013 RMK A01 T01710143  RH  087%=      5-min Rain = 0
KGU1 150303Z 23010KT 17/14 A3013 RMK A01 T01700142  RH  087%=      5-min Rain = 0
KGU1 150304Z 22009KT 17/14 A3013 RMK A01 T01700143  RH  088%=      5-min Rain = 0
KGU1 150305Z 22011KT 17/14 A3013 RMK A01 T01690143  RH  088%=      5-min Rain = 0
KGU1 150306Z 24011G19KT 17/14 A3013 RMK A01 T01690143  RH  088%=      5-min Rain = 0
KGU1 150307Z 25015G20KT 17/14 A3013 RMK A01 T01700141  RH  086%=      5-min Rain = 0
KGU1 150308Z 25011KT 17/14 A3013 RMK A01 T01710141  RH  086%=      5-min Rain = 0
KGU1 150309Z 24013KT 17/14 A3013 RMK A01 T01710142  RH  086%=      5-min Rain = 0
KGU1 150310Z 22013KT 17/14 A3013 RMK A01 T01700142  RH  087%=      5-min Rain = 0
KGU1 150311Z 21014KT 17/14 A3013 RMK A01 T01700143  RH  088%=      5-min Rain = 0
KGU1 150312Z 22011KT 17/14 A3013 RMK A01 T01690144  RH  089%=      5-min Rain = 0
KGU1 150313Z 23011KT 17/14 A3013 RMK A01 T01690144  RH  089%=      5-min Rain = 0
KGU1 150314Z 23015G20KT 17/14 A3013 RMK A01 T01690144  RH  089%=      5-min Rain = 0
KGU1 150315Z 23012KT 17/14 A3013 RMK A01 T01680143  RH  089%=      5-min Rain = 0
KGU1 150316Z 24013KT 17/14 A3013 RMK A01 T01680144  RH  090%=      5-min Rain = 0
KGU1 150317Z 23010G15KT 17/14 A3013 RMK A01 T01680144  RH  090%=      5-min Rain = 0
KGU1 150318Z 23009G15KT 17/15 A3013 RMK A01 T01680145  RH  090%=      5-min Rain = 0
KGU1 150319Z 22010KT 17/15 A3013 RMK A01 T01680145  RH  090%=      5-min Rain = 0
KGU1 150320Z 24012G21KT 17/14 A3013 RMK A01 T01670144  RH  090%=      5-min Rain = 0
KGU1 150321Z 25015KT 17/14 A3013 RMK A01 T01680139  RH  087%=      5-min Rain = 0
KGU1 150322Z 23010G17KT 17/14 A3013 RMK A01 T01720139  RH  084%=      5-min Rain = 0
KGU1 150323Z 23008KT 17/14 A3013 RMK A01 T01720141  RH  086%=      5-min Rain = 0
KGU1 150324Z 23009KT 17/14 A3013 RMK A01 T01710143  RH  088%=      5-min Rain = 0
KGU1 150325Z 22010KT 17/14 A3013 RMK A01 T01700144  RH  089%=      5-min Rain = 0
KGU1 150326Z 24010G15KT 17/14 A3013 RMK A01 T01690144  RH  089%=      5-min Rain = 0
KGU1 150327Z 23012KT 17/15 A3013 RMK A01 T01690145  RH  090%=      5-min Rain = 0
KGU1 150328Z 22013G18KT 17/15 A3013 RMK A01 T01680145  RH  090%=      5-min Rain = 0
KGU1 150329Z 22012KT 17/15 A3013 RMK A01 T01680145  RH  090%=      5-min Rain = 0
KGU1 150330Z 22009KT 17/15 A3013 RMK A01 T01670145  RH  091%=      5-min Rain = 0
KGU1 150331Z 23013KT 17/15 A3013 RMK A01 T01670145  RH  091%=      5-min Rain = 0
KGU1 150332Z 23014KT 17/15 A3013 RMK A01 T01670146  RH  091%=      5-min Rain = 0
KGU1 150333Z 25010KT 17/15 A3013 RMK A01 T01670146  RH  091%=      5-min Rain = 0
KGU1 150334Z 24012G18KT 17/15 A3013 RMK A01 T01670145  RH  091%=      5-min Rain = 0
KGU1 150335Z 23010KT 17/15 A3014 RMK A01 T01680145  RH  090%=      5-min Rain = 0
KGU1 150336Z 24011KT 17/15 A3014 RMK A01 T01670145  RH  091%=      5-min Rain = 0
KGU1 150337Z 23007KT 17/15 A3014 RMK A01 T01670146  RH  091%=      5-min Rain = 0
KGU1 150338Z 23010KT 17/15 A3014 RMK A01 T01670146  RH  091%=      5-min Rain = 0
KGU1 150339Z 24009KT 17/15 A3014 RMK A01 T01670146  RH  091%=      5-min Rain = 0
KGU1 150340Z 22011G16KT 17/15 A3014 RMK A01 T01670146  RH  091%=      5-min Rain = 0
KGU1 150341Z 23012G18KT 17/15 A3014 RMK A01 T01670146  RH  091%=      5-min Rain = 0
KGU1 150342Z 22009KT 17/15 A3014 RMK A01 T01670146  RH  091%=      5-min Rain = 0
KGU1 150343Z 22009KT 17/15 A3014 RMK A01 T01670146  RH  091%=      5-min Rain = 0
KGU1 150344Z 22011KT 17/15 A3014 RMK A01 T01670146  RH  091%=      5-min Rain = 0
KGU1 150345Z 22012G17KT 17/15 A3014 RMK A01 T01670145  RH  091%=      5-min Rain = 0
KGU1 150346Z 23014G19KT 17/15 A3013 RMK A01 T01660145  RH  091%=      5-min Rain = 0
KGU1 150347Z 22011KT 17/15 A3013 RMK A01 T01660145  RH  091%=      5-min Rain = 0
KGU1 150348Z 22013G18KT 17/14 A3013 RMK A01 T01660143  RH  091%=      5-min Rain = 0
KGU1 150349Z 23015KT 17/14 A3014 RMK A01 T01660143  RH  090%=      5-min Rain = 0
KGU1 150350Z 22013KT 17/14 A3014 RMK A01 T01660142  RH  089%=      5-min Rain = 0
KGU1 150351Z 23014KT 17/14 A3014 RMK A01 T01670142  RH  089%=      5-min Rain = 0
KGU1 150352Z 23013KT 17/14 A3014 RMK A01 T01660141  RH  089%=      5-min Rain = 0
KGU1 150353Z 23010KT 17/14 A3013 RMK A01 T01660141  RH  089%=      5-min Rain = 0
KGU1 150354Z 23012G17KT 17/14 A3013 RMK A01 T01650140  RH  089%=      5-min Rain = 0
KGU1 150355Z 23014G19KT 17/14 A3013 RMK A01 T01650138  RH  088%=      5-min Rain = 0
KGU1 150356Z 22013G20KT 17/14 A3013 RMK A01 T01650137  RH  087%=      5-min Rain = 0
KGU1 150357Z 23016KT 17/14 A3013 RMK A01 T01650136  RH  087%=      5-min Rain = 0
KGU1 150358Z 23014G19KT 17/14 A3013 RMK A01 T01650135  RH  086%=      5-min Rain = 0
KGU1 150359Z 23014KT 17/14 A3013 RMK A01 T01660135  RH  085%=      5-min Rain = 0
KGU1 150400Z 23011KT 17/14 A3013 RMK A01 T01650135  RH  085%=      5-min Rain = 0
KGU1 150401Z 23009G14KT 17/14 A3013 RMK A01 T01660135  RH  086%=      5-min Rain = 0
KGU1 150402Z 23012G18KT 17/14 A3013 RMK A01 T01660135  RH  085%=      5-min Rain = 0
KGU1 150403Z 24013KT 17/14 A3013 RMK A01 T01660135  RH  085%=      5-min Rain = 0
KGU1 150404Z 23012KT 17/14 A3013 RMK A01 T01670135  RH  085%=      5-min Rain = 0
KGU1 150405Z 23012KT 17/14 A3013 RMK A01 T01670135  RH  085%=      5-min Rain = 0
KGU1 150406Z 23012KT 17/14 A3013 RMK A01 T01670136  RH  086%=      5-min Rain = 0
KGU1 150407Z 23014KT 17/14 A3013 RMK A01 T01670137  RH  086%=      5-min Rain = 0
KGU1 150408Z 23012KT 17/14 A3013 RMK A01 T01670137  RH  086%=      5-min Rain = 0
KGU1 150409Z 24015G21KT 17/14 A3013 RMK A01 T01680136  RH  085%=      5-min Rain = 0
KGU1 150410Z 25012KT 17/13 A3013 RMK A01 T01700134  RH  083%=      5-min Rain = 0
KGU1 150411Z 24013KT 17/13 A3013 RMK A01 T01710134  RH  082%=      5-min Rain = 0
KGU1 150412Z 24014G20KT 17/14 A3013 RMK A01 T01710135  RH  082%=      5-min Rain = 0
KGU1 150413Z 24013KT 17/13 A3013 RMK A01 T01710134  RH  082%=      5-min Rain = 0
KGU1 150414Z 24013KT 17/13 A3013 RMK A01 T01720130  RH  079%=      5-min Rain = 0
KGU1 150415Z 25013G18KT 17/13 A3013 RMK A01 T01740131  RH  079%=      5-min Rain = 0
KGU1 150416Z 25013KT 17/13 A3013 RMK A01 T01740133  RH  080%=      5-min Rain = 0
KGU1 150417Z 25011KT 17/13 A3013 RMK A01 T01730132  RH  080%=      5-min Rain = 0
KGU1 150418Z 25014KT 17/13 A3013 RMK A01 T01740130  RH  079%=      5-min Rain = 0
KGU1 150419Z 24013KT 18/13 A3013 RMK A01 T01750129  RH  078%=      5-min Rain = 0
KGU1 150420Z 24013KT 17/13 A3014 RMK A01 T01740132  RH  079%=      5-min Rain = 0
KGU1 150421Z 24015G21KT 18/13 A3013 RMK A01 T01750128  RH  077%=      5-min Rain = 0
KGU1 150422Z 24014KT 18/13 A3014 RMK A01 T01760131  RH  078%=      5-min Rain = 0
KGU1 150423Z 24013KT 18/13 A3014 RMK A01 T01750130  RH  078%=      5-min Rain = 0
KGU1 150424Z 24013KT 18/13 A3014 RMK A01 T01750129  RH  078%=      5-min Rain = 0
KGU1 150425Z 24015KT 18/13 A3014 RMK A01 T01750126  RH  076%=      5-min Rain = 0
KGU1 150426Z 24012G19KT 18/13 A3014 RMK A01 T01760125  RH  075%=      5-min Rain = 0
KGU1 150427Z 22013KT 18/13 A3014 RMK A01 T01760128  RH  076%=      5-min Rain = 0
KGU1 150428Z 24014KT 18/13 A3014 RMK A01 T01750129  RH  078%=      5-min Rain = 0
KGU1 150429Z 26015KT 18/12 A3013 RMK A01 T01760124  RH  074%=      5-min Rain = 0
KGU1 150430Z 25012KT 18/12 A3013 RMK A01 T01780122  RH  072%=      5-min Rain = 0
KGU1 150431Z 25010KT 18/13 A3013 RMK A01 T01780127  RH  075%=      5-min Rain = 0
KGU1 150432Z 25014G20KT 18/13 A3013 RMK A01 T01770128  RH  076%=      5-min Rain = 0
KGU1 150433Z 25015KT 18/12 A3013 RMK A01 T01770122  RH  073%=      5-min Rain = 0
KGU1 150434Z 25012KT 18/12 A3013 RMK A01 T01790118  RH  070%=      5-min Rain = 0
KGU1 150435Z 24013KT 18/12 A3013 RMK A01 T01800120  RH  071%=      5-min Rain = 0
KGU1 150436Z 24015KT 18/12 A3013 RMK A01 T01790124  RH  073%=      5-min Rain = 0
KGU1 150437Z 24012KT 18/12 A3013 RMK A01 T01790124  RH  073%=      5-min Rain = 0
KGU1 150438Z 24014KT 18/13 A3013 RMK A01 T01780126  RH  074%=      5-min Rain = 0
KGU1 150439Z 26011KT 18/13 A3013 RMK A01 T01770126  RH  075%=      5-min Rain = 0
KGU1 150440Z 26011KT 18/12 A3013 RMK A01 T01770124  RH  074%=      5-min Rain = 0
KGU1 150441Z 24011KT 18/12 A3013 RMK A01 T01770123  RH  074%=      5-min Rain = 0
KGU1 150442Z 23012KT 18/12 A3013 RMK A01 T01770123  RH  073%=      5-min Rain = 0
KGU1 150443Z 24010KT 18/12 A3013 RMK A01 T01770123  RH  073%=      5-min Rain = 0
KGU1 150444Z 24011KT 18/12 A3013 RMK A01 T01770124  RH  074%=      5-min Rain = 0
KGU1 150445Z 24010G15KT 18/12 A3013 RMK A01 T01770124  RH  074%=      5-min Rain = 0
KGU1 150446Z 26009KT 18/12 A3013 RMK A01 T01760124  RH  074%=      5-min Rain = 0
KGU1 150447Z 24011G16KT 18/12 A3012 RMK A01 T01760124  RH  074%=      5-min Rain = 0
KGU1 150448Z 25012KT 18/12 A3012 RMK A01 T01770122  RH  073%=      5-min Rain = 0
KGU1 150449Z 25008KT 18/12 A3012 RMK A01 T01770122  RH  073%=      5-min Rain = 0
KGU1 150450Z 25008KT 18/12 A3012 RMK A01 T01770122  RH  073%=      5-min Rain = 0
KGU1 150451Z 26009KT 18/12 A3012 RMK A01 T01760121  RH  073%=      5-min Rain = 0
KGU1 150452Z 26011KT 18/12 A3012 RMK A01 T01760121  RH  073%=      5-min Rain = 0
KGU1 150453Z 27009G15KT 18/12 A3012 RMK A01 T01760119  RH  072%=      5-min Rain = 0
KGU1 150454Z 27012G17KT 18/12 A3012 RMK A01 T01750119  RH  072%=      5-min Rain = 0
KGU1 150455Z 25007G12KT 18/12 A3012 RMK A01 T01750119  RH  072%=      5-min Rain = 0
KGU1 150456Z 25010KT 18/12 A3012 RMK A01 T01750120  RH  072%=      5-min Rain = 0
KGU1 150457Z 24014KT 18/12 A3012 RMK A01 T01760120  RH  072%=      5-min Rain = 0
KGU1 150458Z 24012G17KT 18/12 A3012 RMK A01 T01770121  RH  072%=      5-min Rain = 0
KGU1 150459Z 25010KT 18/12 A3012 RMK A01 T01770121  RH  073%=      5-min Rain = 0

Page generated in 0.0813 seconds.